<?xml version="1.0" encoding="UTF-8"?>
<gpx xmlns="http://www.topografix.com/GPX/1/1" xmlns:xsi="http://www.w3.org/2001/XMLSchema-instance" version="1.1" xsi:schemaLocation="http://www.topografix.com/GPX/1/1 http://www.topografix.com/GPX/1/1/gpx.xsd">
  <metadata>
    <name>The Brineman Triathlon 2023 - Long Course Aquabike</name>
  </metadata>
  <trk>
    <name>The Brineman Triathlon 2023 - Long Course Aquabike</name>
    <trkseg>
      <trkpt lat="41.060255" lon="-112.054733">
        <ele>1288.745491</ele>
        <time>2024-09-06T09:38:37.000Z</time>
      </trkpt>
      <trkpt lat="41.060247" lon="-112.054734">
        <ele>1288.745493</ele>
        <time>2024-09-06T09:38:37.000Z</time>
      </trkpt>
      <trkpt lat="41.060247" lon="-112.055144">
        <ele>1288.745485</ele>
        <time>2024-09-06T09:38:40.000Z</time>
      </trkpt>
      <trkpt lat="41.060216" lon="-112.060665">
        <ele>1287.803919</ele>
        <time>2024-09-06T09:39:26.000Z</time>
      </trkpt>
      <trkpt lat="41.060215" lon="-112.0607">
        <ele>1287.795414</ele>
        <time>2024-09-06T09:39:26.000Z</time>
      </trkpt>
      <trkpt lat="41.06022" lon="-112.064699">
        <ele>1287.002649</ele>
        <time>2024-09-06T09:40:00.000Z</time>
      </trkpt>
      <trkpt lat="41.06023" lon="-112.071857">
        <ele>1285.607877</ele>
        <time>2024-09-06T09:41:00.000Z</time>
      </trkpt>
      <trkpt lat="41.060264" lon="-112.073545">
        <ele>1285.308062</ele>
        <time>2024-09-06T09:41:14.000Z</time>
      </trkpt>
      <trkpt lat="41.060245" lon="-112.074216">
        <ele>1285.192114</ele>
        <time>2024-09-06T09:41:20.000Z</time>
      </trkpt>
      <trkpt lat="41.060272" lon="-112.074643">
        <ele>1285.121566</ele>
        <time>2024-09-06T09:41:24.000Z</time>
      </trkpt>
      <trkpt lat="41.060419" lon="-112.07533">
        <ele>1285.051114</ele>
        <time>2024-09-06T09:41:30.000Z</time>
      </trkpt>
      <trkpt lat="41.061083" lon="-112.077288">
        <ele>1285.001293</ele>
        <time>2024-09-06T09:41:48.000Z</time>
      </trkpt>
      <trkpt lat="41.061611" lon="-112.079068">
        <ele>1285.024662</ele>
        <time>2024-09-06T09:42:04.000Z</time>
      </trkpt>
      <trkpt lat="41.063046" lon="-112.083941">
        <ele>1285.350985</ele>
        <time>2024-09-06T09:42:48.000Z</time>
      </trkpt>
      <trkpt lat="41.063173" lon="-112.083923">
        <ele>1285.389927</ele>
        <time>2024-09-06T09:42:49.000Z</time>
      </trkpt>
      <trkpt lat="41.067796" lon="-112.083912">
        <ele>1286.891053</ele>
        <time>2024-09-06T09:43:40.000Z</time>
      </trkpt>
      <trkpt lat="41.071824" lon="-112.083898">
        <ele>1288.205996</ele>
        <time>2024-09-06T09:44:25.000Z</time>
      </trkpt>
      <trkpt lat="41.071951" lon="-112.083905">
        <ele>1288.248847</ele>
        <time>2024-09-06T09:44:26.000Z</time>
      </trkpt>
      <trkpt lat="41.072088" lon="-112.083901">
        <ele>1288.29457</ele>
        <time>2024-09-06T09:44:28.000Z</time>
      </trkpt>
      <trkpt lat="41.072112" lon="-112.083897">
        <ele>1288.301818</ele>
        <time>2024-09-06T09:44:28.000Z</time>
      </trkpt>
      <trkpt lat="41.073207" lon="-112.083897">
        <ele>1288.660995</ele>
        <time>2024-09-06T09:44:40.000Z</time>
      </trkpt>
      <trkpt lat="41.07471" lon="-112.083882">
        <ele>1288.963994</ele>
        <time>2024-09-06T09:44:57.000Z</time>
      </trkpt>
      <trkpt lat="41.074723" lon="-112.084881">
        <ele>1289.057759</ele>
        <time>2024-09-06T09:45:05.000Z</time>
      </trkpt>
      <trkpt lat="41.074715" lon="-112.086135">
        <ele>1289.037323</ele>
        <time>2024-09-06T09:45:16.000Z</time>
      </trkpt>
      <trkpt lat="41.074731" lon="-112.08752">
        <ele>1288.989068</ele>
        <time>2024-09-06T09:45:28.000Z</time>
      </trkpt>
      <trkpt lat="41.074729" lon="-112.087902">
        <ele>1288.95757</ele>
        <time>2024-09-06T09:45:31.000Z</time>
      </trkpt>
      <trkpt lat="41.074737" lon="-112.088086">
        <ele>1288.942575</ele>
        <time>2024-09-06T09:45:33.000Z</time>
      </trkpt>
      <trkpt lat="41.074734" lon="-112.088543">
        <ele>1288.903996</ele>
        <time>2024-09-06T09:45:37.000Z</time>
      </trkpt>
      <trkpt lat="41.074737" lon="-112.088734">
        <ele>1288.888401</ele>
        <time>2024-09-06T09:45:39.000Z</time>
      </trkpt>
      <trkpt lat="41.074731" lon="-112.088863">
        <ele>1288.877827</ele>
        <time>2024-09-06T09:45:40.000Z</time>
      </trkpt>
      <trkpt lat="41.07474" lon="-112.089048">
        <ele>1288.861907</ele>
        <time>2024-09-06T09:45:42.000Z</time>
      </trkpt>
      <trkpt lat="41.07473" lon="-112.089124">
        <ele>1288.855575</ele>
        <time>2024-09-06T09:45:43.000Z</time>
      </trkpt>
      <trkpt lat="41.074733" lon="-112.089205">
        <ele>1288.849979</ele>
        <time>2024-09-06T09:45:44.000Z</time>
      </trkpt>
      <trkpt lat="41.074733" lon="-112.089379">
        <ele>1288.834654</ele>
        <time>2024-09-06T09:45:45.000Z</time>
      </trkpt>
      <trkpt lat="41.07473" lon="-112.08964">
        <ele>1288.813239</ele>
        <time>2024-09-06T09:45:47.000Z</time>
      </trkpt>
      <trkpt lat="41.074738" lon="-112.090397">
        <ele>1288.717118</ele>
        <time>2024-09-06T09:45:53.000Z</time>
      </trkpt>
      <trkpt lat="41.074742" lon="-112.091501">
        <ele>1288.56639</ele>
        <time>2024-09-06T09:46:02.000Z</time>
      </trkpt>
      <trkpt lat="41.074751" lon="-112.09355">
        <ele>1288.534156</ele>
        <time>2024-09-06T09:46:19.000Z</time>
      </trkpt>
      <trkpt lat="41.074774" lon="-112.094075">
        <ele>1288.555993</ele>
        <time>2024-09-06T09:46:23.000Z</time>
      </trkpt>
      <trkpt lat="41.075279" lon="-112.094063">
        <ele>1288.605389</ele>
        <time>2024-09-06T09:46:29.000Z</time>
      </trkpt>
      <trkpt lat="41.076093" lon="-112.094049">
        <ele>1288.775392</ele>
        <time>2024-09-06T09:46:38.000Z</time>
      </trkpt>
      <trkpt lat="41.076916" lon="-112.094039">
        <ele>1288.943778</ele>
        <time>2024-09-06T09:46:47.000Z</time>
      </trkpt>
      <trkpt lat="41.077758" lon="-112.094051">
        <ele>1288.971064</ele>
        <time>2024-09-06T09:46:56.000Z</time>
      </trkpt>
      <trkpt lat="41.078971" lon="-112.094086">
        <ele>1289.004736</ele>
        <time>2024-09-06T09:47:09.000Z</time>
      </trkpt>
      <trkpt lat="41.079739" lon="-112.094121">
        <ele>1289.019333</ele>
        <time>2024-09-06T09:47:18.000Z</time>
      </trkpt>
      <trkpt lat="41.080468" lon="-112.094226">
        <ele>1289.033637</ele>
        <time>2024-09-06T09:47:26.000Z</time>
      </trkpt>
      <trkpt lat="41.081243" lon="-112.094389">
        <ele>1289.200924</ele>
        <time>2024-09-06T09:47:35.000Z</time>
      </trkpt>
      <trkpt lat="41.081493" lon="-112.094499">
        <ele>1289.265936</ele>
        <time>2024-09-06T09:47:38.000Z</time>
      </trkpt>
      <trkpt lat="41.081702" lon="-112.09464">
        <ele>1289.319117</ele>
        <time>2024-09-06T09:47:41.000Z</time>
      </trkpt>
      <trkpt lat="41.081823" lon="-112.0947">
        <ele>1289.348506</ele>
        <time>2024-09-06T09:47:42.000Z</time>
      </trkpt>
      <trkpt lat="41.08199" lon="-112.094706">
        <ele>1289.384567</ele>
        <time>2024-09-06T09:47:44.000Z</time>
      </trkpt>
      <trkpt lat="41.082424" lon="-112.094724">
        <ele>1289.488407</ele>
        <time>2024-09-06T09:47:49.000Z</time>
      </trkpt>
      <trkpt lat="41.083197" lon="-112.094798">
        <ele>1289.672629</ele>
        <time>2024-09-06T09:47:58.000Z</time>
      </trkpt>
      <trkpt lat="41.084074" lon="-112.094916">
        <ele>1289.886945</ele>
        <time>2024-09-06T09:48:08.000Z</time>
      </trkpt>
      <trkpt lat="41.0853" lon="-112.0949">
        <ele>1290.137986</ele>
        <time>2024-09-06T09:48:22.000Z</time>
      </trkpt>
      <trkpt lat="41.086011" lon="-112.094907">
        <ele>1290.295985</ele>
        <time>2024-09-06T09:48:30.000Z</time>
      </trkpt>
      <trkpt lat="41.0862" lon="-112.094913">
        <ele>1290.347772</ele>
        <time>2024-09-06T09:48:32.000Z</time>
      </trkpt>
      <trkpt lat="41.086688" lon="-112.094914">
        <ele>1290.491955</ele>
        <time>2024-09-06T09:48:37.000Z</time>
      </trkpt>
      <trkpt lat="41.086935" lon="-112.095055">
        <ele>1290.568288</ele>
        <time>2024-09-06T09:48:40.000Z</time>
      </trkpt>
      <trkpt lat="41.087132" lon="-112.095286">
        <ele>1290.64126</ele>
        <time>2024-09-06T09:48:43.000Z</time>
      </trkpt>
      <trkpt lat="41.087227" lon="-112.095364">
        <ele>1290.676723</ele>
        <time>2024-09-06T09:48:44.000Z</time>
      </trkpt>
      <trkpt lat="41.087329" lon="-112.095409">
        <ele>1290.703099</ele>
        <time>2024-09-06T09:48:45.000Z</time>
      </trkpt>
      <trkpt lat="41.08809" lon="-112.095398">
        <ele>1290.836225</ele>
        <time>2024-09-06T09:48:53.000Z</time>
      </trkpt>
      <trkpt lat="41.088592" lon="-112.095406">
        <ele>1290.901357</ele>
        <time>2024-09-06T09:48:59.000Z</time>
      </trkpt>
      <trkpt lat="41.088615" lon="-112.095418">
        <ele>1290.905626</ele>
        <time>2024-09-06T09:48:59.000Z</time>
      </trkpt>
      <trkpt lat="41.089227" lon="-112.095428">
        <ele>1290.985232</ele>
        <time>2024-09-06T09:49:06.000Z</time>
      </trkpt>
      <trkpt lat="41.090123" lon="-112.095422">
        <ele>1291.028501</ele>
        <time>2024-09-06T09:49:16.000Z</time>
      </trkpt>
      <trkpt lat="41.091544" lon="-112.095431">
        <ele>1291.083372</ele>
        <time>2024-09-06T09:49:32.000Z</time>
      </trkpt>
      <trkpt lat="41.092009" lon="-112.095428">
        <ele>1291.102538</ele>
        <time>2024-09-06T09:49:37.000Z</time>
      </trkpt>
      <trkpt lat="41.09219" lon="-112.095481">
        <ele>1291.110042</ele>
        <time>2024-09-06T09:49:39.000Z</time>
      </trkpt>
      <trkpt lat="41.092444" lon="-112.095619">
        <ele>1291.121274</ele>
        <time>2024-09-06T09:49:42.000Z</time>
      </trkpt>
      <trkpt lat="41.093633" lon="-112.096262">
        <ele>1291.16735</ele>
        <time>2024-09-06T09:49:56.000Z</time>
      </trkpt>
      <trkpt lat="41.094269" lon="-112.096625">
        <ele>1291.190627</ele>
        <time>2024-09-06T09:50:04.000Z</time>
      </trkpt>
      <trkpt lat="41.094366" lon="-112.096675">
        <ele>1291.193897</ele>
        <time>2024-09-06T09:50:05.000Z</time>
      </trkpt>
      <trkpt lat="41.094604" lon="-112.096673">
        <ele>1291.197299</ele>
        <time>2024-09-06T09:50:08.000Z</time>
      </trkpt>
      <trkpt lat="41.094714" lon="-112.096683">
        <ele>1291.191964</ele>
        <time>2024-09-06T09:50:09.000Z</time>
      </trkpt>
      <trkpt lat="41.094709" lon="-112.096962">
        <ele>1291.180931</ele>
        <time>2024-09-06T09:50:11.000Z</time>
      </trkpt>
      <trkpt lat="41.094719" lon="-112.098286">
        <ele>1291.128922</ele>
        <time>2024-09-06T09:50:22.000Z</time>
      </trkpt>
      <trkpt lat="41.094713" lon="-112.098758">
        <ele>1291.110177</ele>
        <time>2024-09-06T09:50:26.000Z</time>
      </trkpt>
      <trkpt lat="41.094718" lon="-112.099179">
        <ele>1291.058093</ele>
        <time>2024-09-06T09:50:30.000Z</time>
      </trkpt>
      <trkpt lat="41.094756" lon="-112.099528">
        <ele>1291.004039</ele>
        <time>2024-09-06T09:50:33.000Z</time>
      </trkpt>
      <trkpt lat="41.094756" lon="-112.100096">
        <ele>1290.914803</ele>
        <time>2024-09-06T09:50:38.000Z</time>
      </trkpt>
      <trkpt lat="41.094709" lon="-112.100455">
        <ele>1290.860437</ele>
        <time>2024-09-06T09:50:41.000Z</time>
      </trkpt>
      <trkpt lat="41.094693" lon="-112.100655">
        <ele>1290.827141</ele>
        <time>2024-09-06T09:50:43.000Z</time>
      </trkpt>
      <trkpt lat="41.094705" lon="-112.101385">
        <ele>1290.70654</ele>
        <time>2024-09-06T09:50:49.000Z</time>
      </trkpt>
      <trkpt lat="41.094729" lon="-112.103129">
        <ele>1290.317283</ele>
        <time>2024-09-06T09:51:04.000Z</time>
      </trkpt>
      <trkpt lat="41.094782" lon="-112.103209">
        <ele>1290.294789</ele>
        <time>2024-09-06T09:51:05.000Z</time>
      </trkpt>
      <trkpt lat="41.094784" lon="-112.103565">
        <ele>1290.215083</ele>
        <time>2024-09-06T09:51:08.000Z</time>
      </trkpt>
      <trkpt lat="41.094741" lon="-112.103688">
        <ele>1290.186066</ele>
        <time>2024-09-06T09:51:09.000Z</time>
      </trkpt>
      <trkpt lat="41.094764" lon="-112.104179">
        <ele>1290.083257</ele>
        <time>2024-09-06T09:51:13.000Z</time>
      </trkpt>
      <trkpt lat="41.094749" lon="-112.104388">
        <ele>1290.037987</ele>
        <time>2024-09-06T09:51:15.000Z</time>
      </trkpt>
      <trkpt lat="41.094802" lon="-112.104661">
        <ele>1289.980157</ele>
        <time>2024-09-06T09:51:17.000Z</time>
      </trkpt>
      <trkpt lat="41.095047" lon="-112.105569">
        <ele>1289.776476</ele>
        <time>2024-09-06T09:51:25.000Z</time>
      </trkpt>
      <trkpt lat="41.095337" lon="-112.106665">
        <ele>1289.509147</ele>
        <time>2024-09-06T09:51:35.000Z</time>
      </trkpt>
      <trkpt lat="41.095631" lon="-112.107789">
        <ele>1289.224981</ele>
        <time>2024-09-06T09:51:45.000Z</time>
      </trkpt>
      <trkpt lat="41.095728" lon="-112.10815">
        <ele>1289.135975</ele>
        <time>2024-09-06T09:51:48.000Z</time>
      </trkpt>
      <trkpt lat="41.095751" lon="-112.108438">
        <ele>1289.079912</ele>
        <time>2024-09-06T09:51:50.000Z</time>
      </trkpt>
      <trkpt lat="41.095765" lon="-112.108779">
        <ele>1289.018566</ele>
        <time>2024-09-06T09:51:53.000Z</time>
      </trkpt>
      <trkpt lat="41.095663" lon="-112.109328">
        <ele>1288.913584</ele>
        <time>2024-09-06T09:51:58.000Z</time>
      </trkpt>
      <trkpt lat="41.095568" lon="-112.109621">
        <ele>1288.857707</ele>
        <time>2024-09-06T09:52:01.000Z</time>
      </trkpt>
      <trkpt lat="41.094993" lon="-112.110775">
        <ele>1288.589294</ele>
        <time>2024-09-06T09:52:13.000Z</time>
      </trkpt>
      <trkpt lat="41.094743" lon="-112.111306">
        <ele>1288.45706</ele>
        <time>2024-09-06T09:52:18.000Z</time>
      </trkpt>
      <trkpt lat="41.09468" lon="-112.111487">
        <ele>1288.414973</ele>
        <time>2024-09-06T09:52:20.000Z</time>
      </trkpt>
      <trkpt lat="41.094667" lon="-112.111698">
        <ele>1288.372447</ele>
        <time>2024-09-06T09:52:22.000Z</time>
      </trkpt>
      <trkpt lat="41.094657" lon="-112.11206">
        <ele>1288.29778</ele>
        <time>2024-09-06T09:52:25.000Z</time>
      </trkpt>
      <trkpt lat="41.094654" lon="-112.112691">
        <ele>1288.190867</ele>
        <time>2024-09-06T09:52:30.000Z</time>
      </trkpt>
      <trkpt lat="41.092919" lon="-112.112696">
        <ele>1288.101133</ele>
        <time>2024-09-06T09:52:49.000Z</time>
      </trkpt>
      <trkpt lat="41.091619" lon="-112.112705">
        <ele>1288.120751</ele>
        <time>2024-09-06T09:53:03.000Z</time>
      </trkpt>
      <trkpt lat="41.091234" lon="-112.112699">
        <ele>1288.126794</ele>
        <time>2024-09-06T09:53:07.000Z</time>
      </trkpt>
      <trkpt lat="41.090547" lon="-112.112713">
        <ele>1288.0325</ele>
        <time>2024-09-06T09:53:15.000Z</time>
      </trkpt>
      <trkpt lat="41.089253" lon="-112.11271">
        <ele>1287.777949</ele>
        <time>2024-09-06T09:53:29.000Z</time>
      </trkpt>
      <trkpt lat="41.089261" lon="-112.113724">
        <ele>1287.316612</ele>
        <time>2024-09-06T09:53:37.000Z</time>
      </trkpt>
      <trkpt lat="41.089259" lon="-112.113786">
        <ele>1287.293516</ele>
        <time>2024-09-06T09:53:38.000Z</time>
      </trkpt>
      <trkpt lat="41.08925" lon="-112.114279">
        <ele>1287.065558</ele>
        <time>2024-09-06T09:53:42.000Z</time>
      </trkpt>
      <trkpt lat="41.089268" lon="-112.117158">
        <ele>1285.388471</ele>
        <time>2024-09-06T09:54:06.000Z</time>
      </trkpt>
      <trkpt lat="41.089255" lon="-112.119141">
        <ele>1284.684807</ele>
        <time>2024-09-06T09:54:23.000Z</time>
      </trkpt>
      <trkpt lat="41.089316" lon="-112.1807">
        <ele>1281.033451</ele>
        <time>2024-09-06T10:02:59.000Z</time>
      </trkpt>
      <trkpt lat="41.08927" lon="-112.185179">
        <ele>1280.999992</ele>
        <time>2024-09-06T10:03:37.000Z</time>
      </trkpt>
      <trkpt lat="41.089149" lon="-112.186801">
        <ele>1280.999996</ele>
        <time>2024-09-06T10:03:51.000Z</time>
      </trkpt>
      <trkpt lat="41.08897" lon="-112.188013">
        <ele>1280.999997</ele>
        <time>2024-09-06T10:04:01.000Z</time>
      </trkpt>
      <trkpt lat="41.088553" lon="-112.190033">
        <ele>1281.000007</ele>
        <time>2024-09-06T10:04:19.000Z</time>
      </trkpt>
      <trkpt lat="41.087961" lon="-112.192114">
        <ele>1281.000007</ele>
        <time>2024-09-06T10:04:38.000Z</time>
      </trkpt>
      <trkpt lat="41.087172" lon="-112.194471">
        <ele>1280.999996</ele>
        <time>2024-09-06T10:05:00.000Z</time>
      </trkpt>
      <trkpt lat="41.08668" lon="-112.195757">
        <ele>1280.999994</ele>
        <time>2024-09-06T10:05:12.000Z</time>
      </trkpt>
      <trkpt lat="41.084187" lon="-112.202802">
        <ele>1280.999992</ele>
        <time>2024-09-06T10:06:17.000Z</time>
      </trkpt>
      <trkpt lat="41.083779" lon="-112.204021">
        <ele>1280.999993</ele>
        <time>2024-09-06T10:06:28.000Z</time>
      </trkpt>
      <trkpt lat="41.082543" lon="-112.20751">
        <ele>1281.000006</ele>
        <time>2024-09-06T10:07:00.000Z</time>
      </trkpt>
      <trkpt lat="41.082207" lon="-112.208538">
        <ele>1281.000006</ele>
        <time>2024-09-06T10:07:09.000Z</time>
      </trkpt>
      <trkpt lat="41.081836" lon="-112.209523">
        <ele>1280.999999</ele>
        <time>2024-09-06T10:07:18.000Z</time>
      </trkpt>
      <trkpt lat="41.080471" lon="-112.213541">
        <ele>1280.999995</ele>
        <time>2024-09-06T10:07:55.000Z</time>
      </trkpt>
      <trkpt lat="41.08002" lon="-112.214681">
        <ele>1280.999994</ele>
        <time>2024-09-06T10:08:06.000Z</time>
      </trkpt>
      <trkpt lat="41.079789" lon="-112.215078">
        <ele>1281.000006</ele>
        <time>2024-09-06T10:08:10.000Z</time>
      </trkpt>
      <trkpt lat="41.079325" lon="-112.215756">
        <ele>1281.000001</ele>
        <time>2024-09-06T10:08:18.000Z</time>
      </trkpt>
      <trkpt lat="41.078623" lon="-112.216712">
        <ele>1280.999995</ele>
        <time>2024-09-06T10:08:29.000Z</time>
      </trkpt>
      <trkpt lat="41.076293" lon="-112.220029">
        <ele>1281.000005</ele>
        <time>2024-09-06T10:09:07.000Z</time>
      </trkpt>
      <trkpt lat="41.075026" lon="-112.221678">
        <ele>1280.999992</ele>
        <time>2024-09-06T10:09:27.000Z</time>
      </trkpt>
      <trkpt lat="41.074482" lon="-112.222252">
        <ele>1281.000006</ele>
        <time>2024-09-06T10:09:35.000Z</time>
      </trkpt>
      <trkpt lat="41.072148" lon="-112.224616">
        <ele>1280.999998</ele>
        <time>2024-09-06T10:10:08.000Z</time>
      </trkpt>
      <trkpt lat="41.06683" lon="-112.230153">
        <ele>1280.999995</ele>
        <time>2024-09-06T10:11:23.000Z</time>
      </trkpt>
      <trkpt lat="41.066613" lon="-112.230374">
        <ele>1281.000009</ele>
        <time>2024-09-06T10:11:26.000Z</time>
      </trkpt>
      <trkpt lat="41.061491" lon="-112.235613">
        <ele>1281.272612</ele>
        <time>2024-09-06T10:12:38.000Z</time>
      </trkpt>
      <trkpt lat="41.05994" lon="-112.237218">
        <ele>1283.154619</ele>
        <time>2024-09-06T10:13:00.000Z</time>
      </trkpt>
      <trkpt lat="41.059886" lon="-112.237286">
        <ele>1283.265751</ele>
        <time>2024-09-06T10:13:01.000Z</time>
      </trkpt>
      <trkpt lat="41.059734" lon="-112.237475">
        <ele>1283.584915</ele>
        <time>2024-09-06T10:13:03.000Z</time>
      </trkpt>
      <trkpt lat="41.05954" lon="-112.237675">
        <ele>1283.976651</ele>
        <time>2024-09-06T10:13:06.000Z</time>
      </trkpt>
      <trkpt lat="41.059437" lon="-112.237806">
        <ele>1284.203137</ele>
        <time>2024-09-06T10:13:08.000Z</time>
      </trkpt>
      <trkpt lat="41.05934" lon="-112.238023">
        <ele>1284.555735</ele>
        <time>2024-09-06T10:13:10.000Z</time>
      </trkpt>
      <trkpt lat="41.059227" lon="-112.238523">
        <ele>1285.534345</ele>
        <time>2024-09-06T10:13:14.000Z</time>
      </trkpt>
      <trkpt lat="41.059096" lon="-112.238896">
        <ele>1286.318592</ele>
        <time>2024-09-06T10:13:17.000Z</time>
      </trkpt>
      <trkpt lat="41.058999" lon="-112.239456">
        <ele>1287.394228</ele>
        <time>2024-09-06T10:13:22.000Z</time>
      </trkpt>
      <trkpt lat="41.059008" lon="-112.239749">
        <ele>1287.964334</ele>
        <time>2024-09-06T10:13:24.000Z</time>
      </trkpt>
      <trkpt lat="41.059155" lon="-112.240491">
        <ele>1289.039609</ele>
        <time>2024-09-06T10:13:30.000Z</time>
      </trkpt>
      <trkpt lat="41.059265" lon="-112.240805">
        <ele>1289.223711</ele>
        <time>2024-09-06T10:13:33.000Z</time>
      </trkpt>
      <trkpt lat="41.059442" lon="-112.241225">
        <ele>1289.473271</ele>
        <time>2024-09-06T10:13:37.000Z</time>
      </trkpt>
      <trkpt lat="41.059476" lon="-112.241553">
        <ele>1289.651634</ele>
        <time>2024-09-06T10:13:40.000Z</time>
      </trkpt>
      <trkpt lat="41.059376" lon="-112.242583">
        <ele>1290.186109</ele>
        <time>2024-09-06T10:13:49.000Z</time>
      </trkpt>
      <trkpt lat="41.059166" lon="-112.243716">
        <ele>1290.552268</ele>
        <time>2024-09-06T10:13:59.000Z</time>
      </trkpt>
      <trkpt lat="41.058898" lon="-112.244681">
        <ele>1290.875258</ele>
        <time>2024-09-06T10:14:08.000Z</time>
      </trkpt>
      <trkpt lat="41.058753" lon="-112.245301">
        <ele>1290.945812</ele>
        <time>2024-09-06T10:14:13.000Z</time>
      </trkpt>
      <trkpt lat="41.058467" lon="-112.2469">
        <ele>1291.043748</ele>
        <time>2024-09-06T10:14:27.000Z</time>
      </trkpt>
      <trkpt lat="41.058246" lon="-112.248305">
        <ele>1290.697594</ele>
        <time>2024-09-06T10:14:39.000Z</time>
      </trkpt>
      <trkpt lat="41.058069" lon="-112.248551">
        <ele>1290.59537</ele>
        <time>2024-09-06T10:14:42.000Z</time>
      </trkpt>
      <trkpt lat="41.057994" lon="-112.248628">
        <ele>1290.561948</ele>
        <time>2024-09-06T10:14:43.000Z</time>
      </trkpt>
      <trkpt lat="41.057837" lon="-112.248692">
        <ele>1290.501363</ele>
        <time>2024-09-06T10:14:45.000Z</time>
      </trkpt>
      <trkpt lat="41.057712" lon="-112.248701">
        <ele>1290.452586</ele>
        <time>2024-09-06T10:14:46.000Z</time>
      </trkpt>
      <trkpt lat="41.057624" lon="-112.248692">
        <ele>1290.417582</ele>
        <time>2024-09-06T10:14:47.000Z</time>
      </trkpt>
      <trkpt lat="41.057516" lon="-112.248614">
        <ele>1290.365623</ele>
        <time>2024-09-06T10:14:48.000Z</time>
      </trkpt>
      <trkpt lat="41.056932" lon="-112.24795">
        <ele>1291.704414</ele>
        <time>2024-09-06T10:14:57.000Z</time>
      </trkpt>
      <trkpt lat="41.056143" lon="-112.247163">
        <ele>1293.52057</ele>
        <time>2024-09-06T10:15:08.000Z</time>
      </trkpt>
      <trkpt lat="41.055987" lon="-112.247021">
        <ele>1294.11084</ele>
        <time>2024-09-06T10:15:10.000Z</time>
      </trkpt>
      <trkpt lat="41.055403" lon="-112.246689">
        <ele>1296.409202</ele>
        <time>2024-09-06T10:15:17.000Z</time>
      </trkpt>
      <trkpt lat="41.055235" lon="-112.246485">
        <ele>1297.255525</ele>
        <time>2024-09-06T10:15:20.000Z</time>
      </trkpt>
      <trkpt lat="41.055137" lon="-112.246301">
        <ele>1297.917567</ele>
        <time>2024-09-06T10:15:22.000Z</time>
      </trkpt>
      <trkpt lat="41.055008" lon="-112.245981">
        <ele>1298.89045</ele>
        <time>2024-09-06T10:15:25.000Z</time>
      </trkpt>
      <trkpt lat="41.055006" lon="-112.245783">
        <ele>1299.428432</ele>
        <time>2024-09-06T10:15:27.000Z</time>
      </trkpt>
      <trkpt lat="41.055083" lon="-112.245554">
        <ele>1300.127905</ele>
        <time>2024-09-06T10:15:29.000Z</time>
      </trkpt>
      <trkpt lat="41.055228" lon="-112.245186">
        <ele>1300.472434</ele>
        <time>2024-09-06T10:15:32.000Z</time>
      </trkpt>
      <trkpt lat="41.055289" lon="-112.245013">
        <ele>1300.577559</ele>
        <time>2024-09-06T10:15:34.000Z</time>
      </trkpt>
      <trkpt lat="41.055316" lon="-112.244634">
        <ele>1300.792946</ele>
        <time>2024-09-06T10:15:37.000Z</time>
      </trkpt>
      <trkpt lat="41.055301" lon="-112.244466">
        <ele>1300.897547</ele>
        <time>2024-09-06T10:15:38.000Z</time>
      </trkpt>
      <trkpt lat="41.055218" lon="-112.244042">
        <ele>1301.145476</ele>
        <time>2024-09-06T10:15:42.000Z</time>
      </trkpt>
      <trkpt lat="41.055085" lon="-112.243609">
        <ele>1301.401893</ele>
        <time>2024-09-06T10:15:46.000Z</time>
      </trkpt>
      <trkpt lat="41.054971" lon="-112.243403">
        <ele>1301.554978</ele>
        <time>2024-09-06T10:15:48.000Z</time>
      </trkpt>
      <trkpt lat="41.054726" lon="-112.243203">
        <ele>1301.122893</ele>
        <time>2024-09-06T10:15:51.000Z</time>
      </trkpt>
      <trkpt lat="41.054587" lon="-112.243134">
        <ele>1300.769556</ele>
        <time>2024-09-06T10:15:53.000Z</time>
      </trkpt>
      <trkpt lat="41.054187" lon="-112.243039">
        <ele>1299.739615</ele>
        <time>2024-09-06T10:15:58.000Z</time>
      </trkpt>
      <trkpt lat="41.053986" lon="-112.243096">
        <ele>1299.204622</ele>
        <time>2024-09-06T10:16:00.000Z</time>
      </trkpt>
      <trkpt lat="41.053761" lon="-112.243272">
        <ele>1298.581635</ele>
        <time>2024-09-06T10:16:03.000Z</time>
      </trkpt>
      <trkpt lat="41.053159" lon="-112.244044">
        <ele>1296.741703</ele>
        <time>2024-09-06T10:16:12.000Z</time>
      </trkpt>
      <trkpt lat="41.051812" lon="-112.245071">
        <ele>1294.42685</ele>
        <time>2024-09-06T10:16:29.000Z</time>
      </trkpt>
      <trkpt lat="41.051509" lon="-112.245202">
        <ele>1294.236928</ele>
        <time>2024-09-06T10:16:33.000Z</time>
      </trkpt>
      <trkpt lat="41.050703" lon="-112.245131">
        <ele>1293.751337</ele>
        <time>2024-09-06T10:16:42.000Z</time>
      </trkpt>
      <trkpt lat="41.050464" lon="-112.245287">
        <ele>1293.592638</ele>
        <time>2024-09-06T10:16:45.000Z</time>
      </trkpt>
      <trkpt lat="41.050353" lon="-112.245419">
        <ele>1293.503316</ele>
        <time>2024-09-06T10:16:47.000Z</time>
      </trkpt>
      <trkpt lat="41.050309" lon="-112.245546">
        <ele>1293.444203</ele>
        <time>2024-09-06T10:16:48.000Z</time>
      </trkpt>
      <trkpt lat="41.050298" lon="-112.245674">
        <ele>1293.38322</ele>
        <time>2024-09-06T10:16:49.000Z</time>
      </trkpt>
      <trkpt lat="41.050322" lon="-112.245911">
        <ele>1293.222414</ele>
        <time>2024-09-06T10:16:51.000Z</time>
      </trkpt>
      <trkpt lat="41.050586" lon="-112.246274">
        <ele>1292.851625</ele>
        <time>2024-09-06T10:16:55.000Z</time>
      </trkpt>
      <trkpt lat="41.051018" lon="-112.246758">
        <ele>1292.3018</ele>
        <time>2024-09-06T10:17:01.000Z</time>
      </trkpt>
      <trkpt lat="41.051062" lon="-112.246951">
        <ele>1292.149162</ele>
        <time>2024-09-06T10:17:03.000Z</time>
      </trkpt>
      <trkpt lat="41.051043" lon="-112.247185">
        <ele>1291.975206</ele>
        <time>2024-09-06T10:17:05.000Z</time>
      </trkpt>
      <trkpt lat="41.05098" lon="-112.24733">
        <ele>1291.838169</ele>
        <time>2024-09-06T10:17:06.000Z</time>
      </trkpt>
      <trkpt lat="41.050851" lon="-112.247433">
        <ele>1291.69759</ele>
        <time>2024-09-06T10:17:08.000Z</time>
      </trkpt>
      <trkpt lat="41.050243" lon="-112.247523">
        <ele>1291.199931</ele>
        <time>2024-09-06T10:17:15.000Z</time>
      </trkpt>
      <trkpt lat="41.05011" lon="-112.24759">
        <ele>1291.080203</ele>
        <time>2024-09-06T10:17:17.000Z</time>
      </trkpt>
      <trkpt lat="41.049851" lon="-112.247825">
        <ele>1290.84075</ele>
        <time>2024-09-06T10:17:20.000Z</time>
      </trkpt>
      <trkpt lat="41.049929" lon="-112.247999">
        <ele>1290.717309</ele>
        <time>2024-09-06T10:17:22.000Z</time>
      </trkpt>
      <trkpt lat="41.049852" lon="-112.247818">
        <ele>1290.593861</ele>
        <time>2024-09-06T10:17:24.000Z</time>
      </trkpt>
      <trkpt lat="41.049269" lon="-112.248333">
        <ele>1290.038061</ele>
        <time>2024-09-06T10:17:32.000Z</time>
      </trkpt>
      <trkpt lat="41.049015" lon="-112.248611">
        <ele>1289.748192</ele>
        <time>2024-09-06T10:17:36.000Z</time>
      </trkpt>
      <trkpt lat="41.048208" lon="-112.249779">
        <ele>1288.712931</ele>
        <time>2024-09-06T10:17:49.000Z</time>
      </trkpt>
      <trkpt lat="41.047996" lon="-112.249973">
        <ele>1288.537707</ele>
        <time>2024-09-06T10:17:52.000Z</time>
      </trkpt>
      <trkpt lat="41.047724" lon="-112.250145">
        <ele>1288.35579</ele>
        <time>2024-09-06T10:17:55.000Z</time>
      </trkpt>
      <trkpt lat="41.047211" lon="-112.250358">
        <ele>1288.046616</ele>
        <time>2024-09-06T10:18:01.000Z</time>
      </trkpt>
      <trkpt lat="41.047133" lon="-112.250483">
        <ele>1287.971534</ele>
        <time>2024-09-06T10:18:02.000Z</time>
      </trkpt>
      <trkpt lat="41.047042" lon="-112.25078">
        <ele>1287.828681</ele>
        <time>2024-09-06T10:18:05.000Z</time>
      </trkpt>
      <trkpt lat="41.046988" lon="-112.25086">
        <ele>1287.778096</ele>
        <time>2024-09-06T10:18:06.000Z</time>
      </trkpt>
      <trkpt lat="41.046712" lon="-112.25125">
        <ele>1287.590702</ele>
        <time>2024-09-06T10:18:10.000Z</time>
      </trkpt>
      <trkpt lat="41.046475" lon="-112.251484">
        <ele>1287.754785</ele>
        <time>2024-09-06T10:18:13.000Z</time>
      </trkpt>
      <trkpt lat="41.046228" lon="-112.251715">
        <ele>1287.92572</ele>
        <time>2024-09-06T10:18:16.000Z</time>
      </trkpt>
      <trkpt lat="41.045872" lon="-112.252154">
        <ele>1288.189077</ele>
        <time>2024-09-06T10:18:21.000Z</time>
      </trkpt>
      <trkpt lat="41.045122" lon="-112.2532">
        <ele>1289.688427</ele>
        <time>2024-09-06T10:18:33.000Z</time>
      </trkpt>
      <trkpt lat="41.044969" lon="-112.253272">
        <ele>1290.111613</ele>
        <time>2024-09-06T10:18:35.000Z</time>
      </trkpt>
      <trkpt lat="41.044798" lon="-112.253176">
        <ele>1290.589588</ele>
        <time>2024-09-06T10:18:37.000Z</time>
      </trkpt>
      <trkpt lat="41.044294" lon="-112.252559">
        <ele>1292.396181</ele>
        <time>2024-09-06T10:18:45.000Z</time>
      </trkpt>
      <trkpt lat="41.042256" lon="-112.25039">
        <ele>1300.978475</ele>
        <time>2024-09-06T10:19:14.000Z</time>
      </trkpt>
      <trkpt lat="41.041905" lon="-112.249934">
        <ele>1302.270748</ele>
        <time>2024-09-06T10:19:19.000Z</time>
      </trkpt>
      <trkpt lat="41.041877" lon="-112.249583">
        <ele>1302.986667</ele>
        <time>2024-09-06T10:19:22.000Z</time>
      </trkpt>
      <trkpt lat="41.042122" lon="-112.24815">
        <ele>1305.814639</ele>
        <time>2024-09-06T10:19:34.000Z</time>
      </trkpt>
      <trkpt lat="41.04217" lon="-112.247488">
        <ele>1307.070168</ele>
        <time>2024-09-06T10:19:40.000Z</time>
      </trkpt>
      <trkpt lat="41.042163" lon="-112.246625">
        <ele>1308.700915</ele>
        <time>2024-09-06T10:19:47.000Z</time>
      </trkpt>
      <trkpt lat="41.042044" lon="-112.244974">
        <ele>1313.391967</ele>
        <time>2024-09-06T10:20:01.000Z</time>
      </trkpt>
      <trkpt lat="41.041903" lon="-112.244317">
        <ele>1315.411014</ele>
        <time>2024-09-06T10:20:07.000Z</time>
      </trkpt>
      <trkpt lat="41.041764" lon="-112.243333">
        <ele>1318.19539</ele>
        <time>2024-09-06T10:20:15.000Z</time>
      </trkpt>
      <trkpt lat="41.04141" lon="-112.241255">
        <ele>1322.865545</ele>
        <time>2024-09-06T10:20:33.000Z</time>
      </trkpt>
      <trkpt lat="41.042547" lon="-112.240852">
        <ele>1323.988459</ele>
        <time>2024-09-06T10:20:46.000Z</time>
      </trkpt>
      <trkpt lat="41.043541" lon="-112.240319">
        <ele>1323.586197</ele>
        <time>2024-09-06T10:20:58.000Z</time>
      </trkpt>
      <trkpt lat="41.045192" lon="-112.239251">
        <ele>1322.629804</ele>
        <time>2024-09-06T10:21:18.000Z</time>
      </trkpt>
      <trkpt lat="41.045461" lon="-112.239002">
        <ele>1322.520302</ele>
        <time>2024-09-06T10:21:22.000Z</time>
      </trkpt>
      <trkpt lat="41.046254" lon="-112.238288">
        <ele>1321.890517</ele>
        <time>2024-09-06T10:21:33.000Z</time>
      </trkpt>
      <trkpt lat="41.046663" lon="-112.237834">
        <ele>1321.288902</ele>
        <time>2024-09-06T10:21:39.000Z</time>
      </trkpt>
      <trkpt lat="41.046877" lon="-112.237449">
        <ele>1320.890318</ele>
        <time>2024-09-06T10:21:43.000Z</time>
      </trkpt>
      <trkpt lat="41.046996" lon="-112.237309">
        <ele>1320.709934</ele>
        <time>2024-09-06T10:21:45.000Z</time>
      </trkpt>
      <trkpt lat="41.047343" lon="-112.236843">
        <ele>1319.754765</ele>
        <time>2024-09-06T10:21:50.000Z</time>
      </trkpt>
      <trkpt lat="41.047512" lon="-112.236674">
        <ele>1318.941571</ele>
        <time>2024-09-06T10:21:52.000Z</time>
      </trkpt>
      <trkpt lat="41.047772" lon="-112.236548">
        <ele>1317.781392</ele>
        <time>2024-09-06T10:21:55.000Z</time>
      </trkpt>
      <trkpt lat="41.048062" lon="-112.236502">
        <ele>1316.641738</ele>
        <time>2024-09-06T10:21:58.000Z</time>
      </trkpt>
      <trkpt lat="41.049137" lon="-112.236517">
        <ele>1312.233537</ele>
        <time>2024-09-06T10:22:10.000Z</time>
      </trkpt>
      <trkpt lat="41.049776" lon="-112.23638">
        <ele>1309.3663</ele>
        <time>2024-09-06T10:22:17.000Z</time>
      </trkpt>
      <trkpt lat="41.050577" lon="-112.236379">
        <ele>1305.744793</ele>
        <time>2024-09-06T10:22:26.000Z</time>
      </trkpt>
      <trkpt lat="41.050572" lon="-112.236085">
        <ele>1304.965661</ele>
        <time>2024-09-06T10:22:28.000Z</time>
      </trkpt>
      <trkpt lat="41.050437" lon="-112.235914">
        <ele>1304.677235</ele>
        <time>2024-09-06T10:22:30.000Z</time>
      </trkpt>
      <trkpt lat="41.050276" lon="-112.235588">
        <ele>1304.223976</ele>
        <time>2024-09-06T10:22:33.000Z</time>
      </trkpt>
      <trkpt lat="41.048701" lon="-112.234803">
        <ele>1302.761724</ele>
        <time>2024-09-06T10:22:52.000Z</time>
      </trkpt>
      <trkpt lat="41.048052" lon="-112.234561">
        <ele>1303.429045</ele>
        <time>2024-09-06T10:22:59.000Z</time>
      </trkpt>
      <trkpt lat="41.046832" lon="-112.234025">
        <ele>1305.69628</ele>
        <time>2024-09-06T10:23:13.000Z</time>
      </trkpt>
      <trkpt lat="41.04605" lon="-112.233577">
        <ele>1307.927774</ele>
        <time>2024-09-06T10:23:22.000Z</time>
      </trkpt>
      <trkpt lat="41.044582" lon="-112.232688">
        <ele>1313.966665</ele>
        <time>2024-09-06T10:23:40.000Z</time>
      </trkpt>
      <trkpt lat="41.04423" lon="-112.232367">
        <ele>1315.718753</ele>
        <time>2024-09-06T10:23:45.000Z</time>
      </trkpt>
      <trkpt lat="41.043704" lon="-112.231765">
        <ele>1319.391821</ele>
        <time>2024-09-06T10:23:53.000Z</time>
      </trkpt>
      <trkpt lat="41.043322" lon="-112.231235">
        <ele>1322.533578</ele>
        <time>2024-09-06T10:23:59.000Z</time>
      </trkpt>
      <trkpt lat="41.042971" lon="-112.230676">
        <ele>1325.620015</ele>
        <time>2024-09-06T10:24:05.000Z</time>
      </trkpt>
      <trkpt lat="41.042691" lon="-112.230323">
        <ele>1327.704576</ele>
        <time>2024-09-06T10:24:09.000Z</time>
      </trkpt>
      <trkpt lat="41.042314" lon="-112.229673">
        <ele>1330.958964</ele>
        <time>2024-09-06T10:24:16.000Z</time>
      </trkpt>
      <trkpt lat="41.041998" lon="-112.228942">
        <ele>1334.307069</ele>
        <time>2024-09-06T10:24:23.000Z</time>
      </trkpt>
      <trkpt lat="41.041898" lon="-112.228496">
        <ele>1336.048666</ele>
        <time>2024-09-06T10:24:27.000Z</time>
      </trkpt>
      <trkpt lat="41.041784" lon="-112.228244">
        <ele>1336.847017</ele>
        <time>2024-09-06T10:24:29.000Z</time>
      </trkpt>
      <trkpt lat="41.041561" lon="-112.227211">
        <ele>1339.698976</ele>
        <time>2024-09-06T10:24:38.000Z</time>
      </trkpt>
      <trkpt lat="41.041204" lon="-112.225982">
        <ele>1343.092392</ele>
        <time>2024-09-06T10:24:49.000Z</time>
      </trkpt>
      <trkpt lat="41.040846" lon="-112.224408">
        <ele>1346.990291</ele>
        <time>2024-09-06T10:25:03.000Z</time>
      </trkpt>
      <trkpt lat="41.040609" lon="-112.223127">
        <ele>1349.958891</ele>
        <time>2024-09-06T10:25:14.000Z</time>
      </trkpt>
      <trkpt lat="41.040287" lon="-112.221925">
        <ele>1352.801891</ele>
        <time>2024-09-06T10:25:25.000Z</time>
      </trkpt>
      <trkpt lat="41.040116" lon="-112.219735">
        <ele>1355.032789</ele>
        <time>2024-09-06T10:25:43.000Z</time>
      </trkpt>
      <trkpt lat="41.04025" lon="-112.218677">
        <ele>1354.909096</ele>
        <time>2024-09-06T10:25:52.000Z</time>
      </trkpt>
      <trkpt lat="41.04043" lon="-112.217665">
        <ele>1354.384234</ele>
        <time>2024-09-06T10:26:01.000Z</time>
      </trkpt>
      <trkpt lat="41.040541" lon="-112.215232">
        <ele>1352.244896</ele>
        <time>2024-09-06T10:26:21.000Z</time>
      </trkpt>
      <trkpt lat="41.040707" lon="-112.21435">
        <ele>1351.478836</ele>
        <time>2024-09-06T10:26:29.000Z</time>
      </trkpt>
      <trkpt lat="41.04061" lon="-112.211184">
        <ele>1350.27204</ele>
        <time>2024-09-06T10:26:56.000Z</time>
      </trkpt>
      <trkpt lat="41.040518" lon="-112.210779">
        <ele>1350.330006</ele>
        <time>2024-09-06T10:27:00.000Z</time>
      </trkpt>
      <trkpt lat="41.040344" lon="-112.210141">
        <ele>1350.422445</ele>
        <time>2024-09-06T10:27:06.000Z</time>
      </trkpt>
      <trkpt lat="41.039987" lon="-112.209732">
        <ele>1350.542806</ele>
        <time>2024-09-06T10:27:11.000Z</time>
      </trkpt>
      <trkpt lat="41.039658" lon="-112.209494">
        <ele>1350.640171</ele>
        <time>2024-09-06T10:27:15.000Z</time>
      </trkpt>
      <trkpt lat="41.039473" lon="-112.209427">
        <ele>1350.690889</ele>
        <time>2024-09-06T10:27:17.000Z</time>
      </trkpt>
      <trkpt lat="41.03931" lon="-112.209204">
        <ele>1350.755336</ele>
        <time>2024-09-06T10:27:20.000Z</time>
      </trkpt>
      <trkpt lat="41.03903" lon="-112.20881">
        <ele>1350.864714</ele>
        <time>2024-09-06T10:27:25.000Z</time>
      </trkpt>
      <trkpt lat="41.03856" lon="-112.208421">
        <ele>1349.975573</ele>
        <time>2024-09-06T10:27:31.000Z</time>
      </trkpt>
      <trkpt lat="41.038376" lon="-112.208186">
        <ele>1349.329493</ele>
        <time>2024-09-06T10:27:34.000Z</time>
      </trkpt>
      <trkpt lat="41.037502" lon="-112.207007">
        <ele>1346.038499</ele>
        <time>2024-09-06T10:27:48.000Z</time>
      </trkpt>
      <trkpt lat="41.037371" lon="-112.206787">
        <ele>1345.123899</ele>
        <time>2024-09-06T10:27:50.000Z</time>
      </trkpt>
      <trkpt lat="41.037162" lon="-112.206497">
        <ele>1343.912985</ele>
        <time>2024-09-06T10:27:53.000Z</time>
      </trkpt>
      <trkpt lat="41.036932" lon="-112.206252">
        <ele>1342.684364</ele>
        <time>2024-09-06T10:27:56.000Z</time>
      </trkpt>
      <trkpt lat="41.036021" lon="-112.205573">
        <ele>1338.185559</ele>
        <time>2024-09-06T10:28:08.000Z</time>
      </trkpt>
      <trkpt lat="41.035767" lon="-112.20545">
        <ele>1336.827585</ele>
        <time>2024-09-06T10:28:11.000Z</time>
      </trkpt>
      <trkpt lat="41.035503" lon="-112.205355">
        <ele>1335.412178</ele>
        <time>2024-09-06T10:28:14.000Z</time>
      </trkpt>
      <trkpt lat="41.034271" lon="-112.205328">
        <ele>1329.130816</ele>
        <time>2024-09-06T10:28:28.000Z</time>
      </trkpt>
      <trkpt lat="41.033928" lon="-112.205194">
        <ele>1326.973847</ele>
        <time>2024-09-06T10:28:32.000Z</time>
      </trkpt>
      <trkpt lat="41.033322" lon="-112.205125">
        <ele>1323.476384</ele>
        <time>2024-09-06T10:28:39.000Z</time>
      </trkpt>
      <trkpt lat="41.033187" lon="-112.205048">
        <ele>1322.642087</ele>
        <time>2024-09-06T10:28:41.000Z</time>
      </trkpt>
      <trkpt lat="41.03297" lon="-112.20482">
        <ele>1321.035241</ele>
        <time>2024-09-06T10:28:44.000Z</time>
      </trkpt>
      <trkpt lat="41.032743" lon="-112.204694">
        <ele>1319.622607</ele>
        <time>2024-09-06T10:28:47.000Z</time>
      </trkpt>
      <trkpt lat="41.032408" lon="-112.204599">
        <ele>1317.884724</ele>
        <time>2024-09-06T10:28:51.000Z</time>
      </trkpt>
      <trkpt lat="41.031677" lon="-112.204639">
        <ele>1314.321502</ele>
        <time>2024-09-06T10:28:59.000Z</time>
      </trkpt>
      <trkpt lat="41.030541" lon="-112.204774">
        <ele>1309.395087</ele>
        <time>2024-09-06T10:29:12.000Z</time>
      </trkpt>
      <trkpt lat="41.030088" lon="-112.204749">
        <ele>1307.975703</ele>
        <time>2024-09-06T10:29:17.000Z</time>
      </trkpt>
      <trkpt lat="41.029715" lon="-112.204627">
        <ele>1306.826237</ele>
        <time>2024-09-06T10:29:21.000Z</time>
      </trkpt>
      <trkpt lat="41.029346" lon="-112.204435">
        <ele>1305.61892</ele>
        <time>2024-09-06T10:29:25.000Z</time>
      </trkpt>
      <trkpt lat="41.028989" lon="-112.204168">
        <ele>1304.672713</ele>
        <time>2024-09-06T10:29:30.000Z</time>
      </trkpt>
      <trkpt lat="41.028823" lon="-112.203903">
        <ele>1304.314074</ele>
        <time>2024-09-06T10:29:33.000Z</time>
      </trkpt>
      <trkpt lat="41.028393" lon="-112.203317">
        <ele>1303.461403</ele>
        <time>2024-09-06T10:29:40.000Z</time>
      </trkpt>
      <trkpt lat="41.028068" lon="-112.202947">
        <ele>1302.878602</ele>
        <time>2024-09-06T10:29:45.000Z</time>
      </trkpt>
      <trkpt lat="41.027865" lon="-112.202749">
        <ele>1302.517536</ele>
        <time>2024-09-06T10:29:48.000Z</time>
      </trkpt>
      <trkpt lat="41.027258" lon="-112.202345">
        <ele>1301.764018</ele>
        <time>2024-09-06T10:29:56.000Z</time>
      </trkpt>
      <trkpt lat="41.026865" lon="-112.202015">
        <ele>1301.250679</ele>
        <time>2024-09-06T10:30:01.000Z</time>
      </trkpt>
      <trkpt lat="41.026614" lon="-112.201708">
        <ele>1300.876213</ele>
        <time>2024-09-06T10:30:05.000Z</time>
      </trkpt>
      <trkpt lat="41.026406" lon="-112.201283">
        <ele>1300.461165</ele>
        <time>2024-09-06T10:30:09.000Z</time>
      </trkpt>
      <trkpt lat="41.026303" lon="-112.200915">
        <ele>1300.013328</ele>
        <time>2024-09-06T10:30:12.000Z</time>
      </trkpt>
      <trkpt lat="41.026262" lon="-112.200396">
        <ele>1299.409744</ele>
        <time>2024-09-06T10:30:16.000Z</time>
      </trkpt>
      <trkpt lat="41.026091" lon="-112.199666">
        <ele>1298.539498</ele>
        <time>2024-09-06T10:30:22.000Z</time>
      </trkpt>
      <trkpt lat="41.025657" lon="-112.198532">
        <ele>1297.423331</ele>
        <time>2024-09-06T10:30:33.000Z</time>
      </trkpt>
      <trkpt lat="41.025489" lon="-112.198197">
        <ele>1297.192502</ele>
        <time>2024-09-06T10:30:36.000Z</time>
      </trkpt>
      <trkpt lat="41.02521" lon="-112.197765">
        <ele>1296.859118</ele>
        <time>2024-09-06T10:30:41.000Z</time>
      </trkpt>
      <trkpt lat="41.024653" lon="-112.197017">
        <ele>1296.361316</ele>
        <time>2024-09-06T10:30:50.000Z</time>
      </trkpt>
      <trkpt lat="41.023905" lon="-112.195811">
        <ele>1296.255238</ele>
        <time>2024-09-06T10:31:03.000Z</time>
      </trkpt>
      <trkpt lat="41.023361" lon="-112.195139">
        <ele>1296.176718</ele>
        <time>2024-09-06T10:31:11.000Z</time>
      </trkpt>
      <trkpt lat="41.023194" lon="-112.194665">
        <ele>1296.12688</ele>
        <time>2024-09-06T10:31:15.000Z</time>
      </trkpt>
      <trkpt lat="41.023013" lon="-112.194026">
        <ele>1296.062959</ele>
        <time>2024-09-06T10:31:21.000Z</time>
      </trkpt>
      <trkpt lat="41.022961" lon="-112.193635">
        <ele>1296.025078</ele>
        <time>2024-09-06T10:31:24.000Z</time>
      </trkpt>
      <trkpt lat="41.023046" lon="-112.192924">
        <ele>1296.124319</ele>
        <time>2024-09-06T10:31:30.000Z</time>
      </trkpt>
      <trkpt lat="41.022945" lon="-112.19214">
        <ele>1296.45607</ele>
        <time>2024-09-06T10:31:37.000Z</time>
      </trkpt>
      <trkpt lat="41.022712" lon="-112.191622">
        <ele>1296.703119</ele>
        <time>2024-09-06T10:31:42.000Z</time>
      </trkpt>
      <trkpt lat="41.022343" lon="-112.191176">
        <ele>1296.974483</ele>
        <time>2024-09-06T10:31:48.000Z</time>
      </trkpt>
      <trkpt lat="41.021874" lon="-112.190821">
        <ele>1296.63053</ele>
        <time>2024-09-06T10:31:54.000Z</time>
      </trkpt>
      <trkpt lat="41.02147" lon="-112.190736">
        <ele>1296.370577</ele>
        <time>2024-09-06T10:31:59.000Z</time>
      </trkpt>
      <trkpt lat="41.02133" lon="-112.190657">
        <ele>1296.272356</ele>
        <time>2024-09-06T10:32:01.000Z</time>
      </trkpt>
      <trkpt lat="41.021075" lon="-112.190656">
        <ele>1296.118388</ele>
        <time>2024-09-06T10:32:04.000Z</time>
      </trkpt>
      <trkpt lat="41.020843" lon="-112.19077">
        <ele>1295.959661</ele>
        <time>2024-09-06T10:32:07.000Z</time>
      </trkpt>
      <trkpt lat="41.019306" lon="-112.192001">
        <ele>1292.448603</ele>
        <time>2024-09-06T10:32:27.000Z</time>
      </trkpt>
      <trkpt lat="41.018626" lon="-112.192702">
        <ele>1291.205421</ele>
        <time>2024-09-06T10:32:37.000Z</time>
      </trkpt>
      <trkpt lat="41.017808" lon="-112.193396">
        <ele>1289.963067</ele>
        <time>2024-09-06T10:32:48.000Z</time>
      </trkpt>
      <trkpt lat="41.017033" lon="-112.194137">
        <ele>1289.319255</ele>
        <time>2024-09-06T10:32:59.000Z</time>
      </trkpt>
      <trkpt lat="41.016815" lon="-112.194357">
        <ele>1289.167099</ele>
        <time>2024-09-06T10:33:02.000Z</time>
      </trkpt>
      <trkpt lat="41.016509" lon="-112.194588">
        <ele>1288.969627</ele>
        <time>2024-09-06T10:33:06.000Z</time>
      </trkpt>
      <trkpt lat="41.016206" lon="-112.194749">
        <ele>1288.796958</ele>
        <time>2024-09-06T10:33:10.000Z</time>
      </trkpt>
      <trkpt lat="41.015755" lon="-112.194957">
        <ele>1288.66936</ele>
        <time>2024-09-06T10:33:15.000Z</time>
      </trkpt>
      <trkpt lat="41.015427" lon="-112.195016">
        <ele>1288.590251</ele>
        <time>2024-09-06T10:33:19.000Z</time>
      </trkpt>
      <trkpt lat="41.014007" lon="-112.195174">
        <ele>1288.26683</ele>
        <time>2024-09-06T10:33:35.000Z</time>
      </trkpt>
      <trkpt lat="41.01301" lon="-112.195523">
        <ele>1288.044323</ele>
        <time>2024-09-06T10:33:46.000Z</time>
      </trkpt>
      <trkpt lat="41.012473" lon="-112.19562">
        <ele>1287.868007</ele>
        <time>2024-09-06T10:33:52.000Z</time>
      </trkpt>
      <trkpt lat="41.010015" lon="-112.19608">
        <ele>1286.442162</ele>
        <time>2024-09-06T10:34:20.000Z</time>
      </trkpt>
      <trkpt lat="41.009347" lon="-112.196157">
        <ele>1286.033478</ele>
        <time>2024-09-06T10:34:27.000Z</time>
      </trkpt>
      <trkpt lat="41.008574" lon="-112.196319">
        <ele>1285.682506</ele>
        <time>2024-09-06T10:34:36.000Z</time>
      </trkpt>
      <trkpt lat="41.008108" lon="-112.19645">
        <ele>1285.499709</ele>
        <time>2024-09-06T10:34:41.000Z</time>
      </trkpt>
      <trkpt lat="41.006612" lon="-112.197122">
        <ele>1284.936723</ele>
        <time>2024-09-06T10:34:59.000Z</time>
      </trkpt>
      <trkpt lat="41.006174" lon="-112.197206">
        <ele>1284.785033</ele>
        <time>2024-09-06T10:35:04.000Z</time>
      </trkpt>
      <trkpt lat="41.005378" lon="-112.197139">
        <ele>1284.518972</ele>
        <time>2024-09-06T10:35:13.000Z</time>
      </trkpt>
      <trkpt lat="41.005018" lon="-112.197192">
        <ele>1284.40468</ele>
        <time>2024-09-06T10:35:17.000Z</time>
      </trkpt>
      <trkpt lat="41.004191" lon="-112.197388">
        <ele>1284.137432</ele>
        <time>2024-09-06T10:35:26.000Z</time>
      </trkpt>
      <trkpt lat="41.003648" lon="-112.197468">
        <ele>1284.050774</ele>
        <time>2024-09-06T10:35:32.000Z</time>
      </trkpt>
      <trkpt lat="41.003134" lon="-112.197495">
        <ele>1284.208274</ele>
        <time>2024-09-06T10:35:38.000Z</time>
      </trkpt>
      <trkpt lat="41.002349" lon="-112.197567">
        <ele>1284.443624</ele>
        <time>2024-09-06T10:35:47.000Z</time>
      </trkpt>
      <trkpt lat="41.000658" lon="-112.198229">
        <ele>1285.720966</ele>
        <time>2024-09-06T10:36:07.000Z</time>
      </trkpt>
      <trkpt lat="41.000321" lon="-112.198288">
        <ele>1286.002425</ele>
        <time>2024-09-06T10:36:11.000Z</time>
      </trkpt>
      <trkpt lat="40.999964" lon="-112.198287">
        <ele>1286.337683</ele>
        <time>2024-09-06T10:36:15.000Z</time>
      </trkpt>
      <trkpt lat="40.999161" lon="-112.198039">
        <ele>1287.099681</ele>
        <time>2024-09-06T10:36:24.000Z</time>
      </trkpt>
      <trkpt lat="40.998755" lon="-112.197979">
        <ele>1287.474562</ele>
        <time>2024-09-06T10:36:29.000Z</time>
      </trkpt>
      <trkpt lat="40.998387" lon="-112.198013">
        <ele>1287.867517</ele>
        <time>2024-09-06T10:36:33.000Z</time>
      </trkpt>
      <trkpt lat="40.996894" lon="-112.198248">
        <ele>1289.823017</ele>
        <time>2024-09-06T10:36:50.000Z</time>
      </trkpt>
      <trkpt lat="40.996185" lon="-112.198199">
        <ele>1290.342636</ele>
        <time>2024-09-06T10:36:58.000Z</time>
      </trkpt>
      <trkpt lat="40.996048" lon="-112.198165">
        <ele>1290.41491</ele>
        <time>2024-09-06T10:37:00.000Z</time>
      </trkpt>
      <trkpt lat="40.995233" lon="-112.19748">
        <ele>1290.909261</ele>
        <time>2024-09-06T10:37:11.000Z</time>
      </trkpt>
      <trkpt lat="40.99513" lon="-112.197423">
        <ele>1290.967735</ele>
        <time>2024-09-06T10:37:12.000Z</time>
      </trkpt>
      <trkpt lat="40.995086" lon="-112.197365">
        <ele>1290.997074</ele>
        <time>2024-09-06T10:37:13.000Z</time>
      </trkpt>
      <trkpt lat="40.993685" lon="-112.196412">
        <ele>1288.928796</ele>
        <time>2024-09-06T10:37:31.000Z</time>
      </trkpt>
      <trkpt lat="40.993325" lon="-112.196044">
        <ele>1288.434736</ele>
        <time>2024-09-06T10:37:36.000Z</time>
      </trkpt>
      <trkpt lat="40.992977" lon="-112.195624">
        <ele>1288.007125</ele>
        <time>2024-09-06T10:37:41.000Z</time>
      </trkpt>
      <trkpt lat="40.992734" lon="-112.195377">
        <ele>1287.717303</ele>
        <time>2024-09-06T10:37:44.000Z</time>
      </trkpt>
      <trkpt lat="40.991628" lon="-112.19462">
        <ele>1286.91949</ele>
        <time>2024-09-06T10:37:58.000Z</time>
      </trkpt>
      <trkpt lat="40.991209" lon="-112.194352">
        <ele>1286.826107</ele>
        <time>2024-09-06T10:38:03.000Z</time>
      </trkpt>
      <trkpt lat="40.990795" lon="-112.194019">
        <ele>1286.731353</ele>
        <time>2024-09-06T10:38:08.000Z</time>
      </trkpt>
      <trkpt lat="40.989439" lon="-112.193104">
        <ele>1286.698774</ele>
        <time>2024-09-06T10:38:25.000Z</time>
      </trkpt>
      <trkpt lat="40.988759" lon="-112.1928">
        <ele>1286.76392</ele>
        <time>2024-09-06T10:38:33.000Z</time>
      </trkpt>
      <trkpt lat="40.988092" lon="-112.19254">
        <ele>1287.252348</ele>
        <time>2024-09-06T10:38:41.000Z</time>
      </trkpt>
      <trkpt lat="40.986413" lon="-112.191673">
        <ele>1288.672786</ele>
        <time>2024-09-06T10:39:01.000Z</time>
      </trkpt>
      <trkpt lat="40.983329" lon="-112.190227">
        <ele>1291.486178</ele>
        <time>2024-09-06T10:39:37.000Z</time>
      </trkpt>
      <trkpt lat="40.982643" lon="-112.189802">
        <ele>1291.981336</ele>
        <time>2024-09-06T10:39:45.000Z</time>
      </trkpt>
      <trkpt lat="40.981322" lon="-112.188346">
        <ele>1293.03665</ele>
        <time>2024-09-06T10:40:04.000Z</time>
      </trkpt>
      <trkpt lat="40.980457" lon="-112.187665">
        <ele>1293.537034</ele>
        <time>2024-09-06T10:40:15.000Z</time>
      </trkpt>
      <trkpt lat="40.980129" lon="-112.187213">
        <ele>1293.686441</ele>
        <time>2024-09-06T10:40:20.000Z</time>
      </trkpt>
      <trkpt lat="40.979601" lon="-112.18636">
        <ele>1293.960839</ele>
        <time>2024-09-06T10:40:29.000Z</time>
      </trkpt>
      <trkpt lat="40.978828" lon="-112.185488">
        <ele>1294.00884</ele>
        <time>2024-09-06T10:40:40.000Z</time>
      </trkpt>
      <trkpt lat="40.978465" lon="-112.185158">
        <ele>1294.004928</ele>
        <time>2024-09-06T10:40:45.000Z</time>
      </trkpt>
      <trkpt lat="40.978039" lon="-112.184804">
        <ele>1294.000153</ele>
        <time>2024-09-06T10:40:51.000Z</time>
      </trkpt>
      <trkpt lat="40.977394" lon="-112.184389">
        <ele>1294.031879</ele>
        <time>2024-09-06T10:40:59.000Z</time>
      </trkpt>
      <trkpt lat="40.977143" lon="-112.184237">
        <ele>1294.044207</ele>
        <time>2024-09-06T10:41:02.000Z</time>
      </trkpt>
      <trkpt lat="40.9768" lon="-112.183998">
        <ele>1294.061533</ele>
        <time>2024-09-06T10:41:06.000Z</time>
      </trkpt>
      <trkpt lat="40.976433" lon="-112.183806">
        <ele>1294.079723</ele>
        <time>2024-09-06T10:41:10.000Z</time>
      </trkpt>
      <trkpt lat="40.975891" lon="-112.183533">
        <ele>1294.002271</ele>
        <time>2024-09-06T10:41:16.000Z</time>
      </trkpt>
      <trkpt lat="40.974929" lon="-112.183225">
        <ele>1293.857299</ele>
        <time>2024-09-06T10:41:27.000Z</time>
      </trkpt>
      <trkpt lat="40.973977" lon="-112.182842">
        <ele>1293.211619</ele>
        <time>2024-09-06T10:41:38.000Z</time>
      </trkpt>
      <trkpt lat="40.973638" lon="-112.182648">
        <ele>1292.904275</ele>
        <time>2024-09-06T10:41:42.000Z</time>
      </trkpt>
      <trkpt lat="40.972779" lon="-112.181916">
        <ele>1291.880533</ele>
        <time>2024-09-06T10:41:53.000Z</time>
      </trkpt>
      <trkpt lat="40.972205" lon="-112.181505">
        <ele>1290.968688</ele>
        <time>2024-09-06T10:42:00.000Z</time>
      </trkpt>
      <trkpt lat="40.972058" lon="-112.181352">
        <ele>1290.698661</ele>
        <time>2024-09-06T10:42:02.000Z</time>
      </trkpt>
      <trkpt lat="40.971425" lon="-112.180473">
        <ele>1289.574212</ele>
        <time>2024-09-06T10:42:12.000Z</time>
      </trkpt>
      <trkpt lat="40.971095" lon="-112.180121">
        <ele>1289.226771</ele>
        <time>2024-09-06T10:42:17.000Z</time>
      </trkpt>
      <trkpt lat="40.970037" lon="-112.17915">
        <ele>1288.220144</ele>
        <time>2024-09-06T10:42:31.000Z</time>
      </trkpt>
      <trkpt lat="40.969678" lon="-112.178848">
        <ele>1288.056941</ele>
        <time>2024-09-06T10:42:36.000Z</time>
      </trkpt>
      <trkpt lat="40.969241" lon="-112.178533">
        <ele>1287.873332</ele>
        <time>2024-09-06T10:42:42.000Z</time>
      </trkpt>
      <trkpt lat="40.968208" lon="-112.177893">
        <ele>1287.462829</ele>
        <time>2024-09-06T10:42:55.000Z</time>
      </trkpt>
      <trkpt lat="40.967709" lon="-112.177736">
        <ele>1287.290969</ele>
        <time>2024-09-06T10:43:01.000Z</time>
      </trkpt>
      <trkpt lat="40.966359" lon="-112.177295">
        <ele>1286.995105</ele>
        <time>2024-09-06T10:43:16.000Z</time>
      </trkpt>
      <trkpt lat="40.965605" lon="-112.177163">
        <ele>1286.976226</ele>
        <time>2024-09-06T10:43:24.000Z</time>
      </trkpt>
      <trkpt lat="40.964827" lon="-112.177039">
        <ele>1287.153997</ele>
        <time>2024-09-06T10:43:33.000Z</time>
      </trkpt>
      <trkpt lat="40.964426" lon="-112.176963">
        <ele>1287.410531</ele>
        <time>2024-09-06T10:43:38.000Z</time>
      </trkpt>
      <trkpt lat="40.96406" lon="-112.176805">
        <ele>1287.657094</ele>
        <time>2024-09-06T10:43:42.000Z</time>
      </trkpt>
      <trkpt lat="40.963696" lon="-112.176572">
        <ele>1287.909125</ele>
        <time>2024-09-06T10:43:46.000Z</time>
      </trkpt>
      <trkpt lat="40.963239" lon="-112.176254">
        <ele>1288.370772</ele>
        <time>2024-09-06T10:43:52.000Z</time>
      </trkpt>
      <trkpt lat="40.963021" lon="-112.176077">
        <ele>1288.71328</ele>
        <time>2024-09-06T10:43:55.000Z</time>
      </trkpt>
      <trkpt lat="40.962578" lon="-112.1758">
        <ele>1289.336622</ele>
        <time>2024-09-06T10:44:00.000Z</time>
      </trkpt>
      <trkpt lat="40.962209" lon="-112.175571">
        <ele>1289.858739</ele>
        <time>2024-09-06T10:44:05.000Z</time>
      </trkpt>
      <trkpt lat="40.961505" lon="-112.175187">
        <ele>1291.184089</ele>
        <time>2024-09-06T10:44:13.000Z</time>
      </trkpt>
      <trkpt lat="40.960519" lon="-112.174854">
        <ele>1293.601214</ele>
        <time>2024-09-06T10:44:24.000Z</time>
      </trkpt>
      <trkpt lat="40.960094" lon="-112.174668">
        <ele>1294.691761</ele>
        <time>2024-09-06T10:44:29.000Z</time>
      </trkpt>
      <trkpt lat="40.958959" lon="-112.174244">
        <ele>1297.672726</ele>
        <time>2024-09-06T10:44:42.000Z</time>
      </trkpt>
      <trkpt lat="40.958228" lon="-112.173527">
        <ele>1299.711564</ele>
        <time>2024-09-06T10:44:52.000Z</time>
      </trkpt>
      <trkpt lat="40.957663" lon="-112.172909">
        <ele>1300.76755</ele>
        <time>2024-09-06T10:45:00.000Z</time>
      </trkpt>
      <trkpt lat="40.956943" lon="-112.172353">
        <ele>1301.96554</ele>
        <time>2024-09-06T10:45:09.000Z</time>
      </trkpt>
      <trkpt lat="40.95661" lon="-112.172112">
        <ele>1302.358971</ele>
        <time>2024-09-06T10:45:13.000Z</time>
      </trkpt>
      <trkpt lat="40.955786" lon="-112.171699">
        <ele>1303.313166</ele>
        <time>2024-09-06T10:45:23.000Z</time>
      </trkpt>
      <trkpt lat="40.954605" lon="-112.171525">
        <ele>1304.35604</ele>
        <time>2024-09-06T10:45:36.000Z</time>
      </trkpt>
      <trkpt lat="40.953611" lon="-112.171495">
        <ele>1305.11028</ele>
        <time>2024-09-06T10:45:47.000Z</time>
      </trkpt>
      <trkpt lat="40.952072" lon="-112.171661">
        <ele>1305.325996</ele>
        <time>2024-09-06T10:46:04.000Z</time>
      </trkpt>
      <trkpt lat="40.950857" lon="-112.171669">
        <ele>1305.390824</ele>
        <time>2024-09-06T10:46:18.000Z</time>
      </trkpt>
      <trkpt lat="40.948644" lon="-112.172137">
        <ele>1305.432475</ele>
        <time>2024-09-06T10:46:43.000Z</time>
      </trkpt>
      <trkpt lat="40.94785" lon="-112.172274">
        <ele>1305.303142</ele>
        <time>2024-09-06T10:46:52.000Z</time>
      </trkpt>
      <trkpt lat="40.947017" lon="-112.172355">
        <ele>1304.941186</ele>
        <time>2024-09-06T10:47:01.000Z</time>
      </trkpt>
      <trkpt lat="40.946869" lon="-112.172405">
        <ele>1304.871559</ele>
        <time>2024-09-06T10:47:03.000Z</time>
      </trkpt>
      <trkpt lat="40.94456" lon="-112.172691">
        <ele>1303.589694</ele>
        <time>2024-09-06T10:47:29.000Z</time>
      </trkpt>
      <trkpt lat="40.942598" lon="-112.173205">
        <ele>1303.451492</ele>
        <time>2024-09-06T10:47:51.000Z</time>
      </trkpt>
      <trkpt lat="40.940594" lon="-112.173317">
        <ele>1305.917421</ele>
        <time>2024-09-06T10:48:13.000Z</time>
      </trkpt>
      <trkpt lat="40.93825" lon="-112.173646">
        <ele>1310.890019</ele>
        <time>2024-09-06T10:48:39.000Z</time>
      </trkpt>
      <trkpt lat="40.937801" lon="-112.17369">
        <ele>1311.856401</ele>
        <time>2024-09-06T10:48:44.000Z</time>
      </trkpt>
      <trkpt lat="40.937314" lon="-112.173676">
        <ele>1312.81497</ele>
        <time>2024-09-06T10:48:49.000Z</time>
      </trkpt>
      <trkpt lat="40.936699" lon="-112.173506">
        <ele>1313.681877</ele>
        <time>2024-09-06T10:48:56.000Z</time>
      </trkpt>
      <trkpt lat="40.936375" lon="-112.173356">
        <ele>1314.160234</ele>
        <time>2024-09-06T10:49:00.000Z</time>
      </trkpt>
      <trkpt lat="40.931346" lon="-112.17013">
        <ele>1318.855536</ele>
        <time>2024-09-06T10:50:02.000Z</time>
      </trkpt>
      <trkpt lat="40.929834" lon="-112.169572">
        <ele>1315.404129</ele>
        <time>2024-09-06T10:50:19.000Z</time>
      </trkpt>
      <trkpt lat="40.928928" lon="-112.169144">
        <ele>1312.250387</ele>
        <time>2024-09-06T10:50:30.000Z</time>
      </trkpt>
      <trkpt lat="40.92784" lon="-112.168878">
        <ele>1308.560931</ele>
        <time>2024-09-06T10:50:42.000Z</time>
      </trkpt>
      <trkpt lat="40.926973" lon="-112.168957">
        <ele>1307.507772</ele>
        <time>2024-09-06T10:50:52.000Z</time>
      </trkpt>
      <trkpt lat="40.927849" lon="-112.168874">
        <ele>1308.862773</ele>
        <time>2024-09-06T10:51:02.000Z</time>
      </trkpt>
      <trkpt lat="40.928942" lon="-112.169141">
        <ele>1311.930883</ele>
        <time>2024-09-06T10:51:14.000Z</time>
      </trkpt>
      <trkpt lat="40.929848" lon="-112.169565">
        <ele>1315.708349</ele>
        <time>2024-09-06T10:51:25.000Z</time>
      </trkpt>
      <trkpt lat="40.93136" lon="-112.170134">
        <ele>1318.827704</ele>
        <time>2024-09-06T10:51:42.000Z</time>
      </trkpt>
      <trkpt lat="40.93638" lon="-112.173348">
        <ele>1314.242708</ele>
        <time>2024-09-06T10:52:44.000Z</time>
      </trkpt>
      <trkpt lat="40.936712" lon="-112.173514">
        <ele>1313.815492</ele>
        <time>2024-09-06T10:52:48.000Z</time>
      </trkpt>
      <trkpt lat="40.937313" lon="-112.173666">
        <ele>1312.665666</ele>
        <time>2024-09-06T10:52:55.000Z</time>
      </trkpt>
      <trkpt lat="40.93781" lon="-112.173682">
        <ele>1311.782697</ele>
        <time>2024-09-06T10:53:01.000Z</time>
      </trkpt>
      <trkpt lat="40.938249" lon="-112.173658">
        <ele>1310.961049</ele>
        <time>2024-09-06T10:53:06.000Z</time>
      </trkpt>
      <trkpt lat="40.940596" lon="-112.173303">
        <ele>1305.906672</ele>
        <time>2024-09-06T10:53:32.000Z</time>
      </trkpt>
      <trkpt lat="40.942601" lon="-112.173203">
        <ele>1303.612632</ele>
        <time>2024-09-06T10:53:54.000Z</time>
      </trkpt>
      <trkpt lat="40.94457" lon="-112.172699">
        <ele>1303.676549</ele>
        <time>2024-09-06T10:54:16.000Z</time>
      </trkpt>
      <trkpt lat="40.946858" lon="-112.172392">
        <ele>1304.884681</ele>
        <time>2024-09-06T10:54:42.000Z</time>
      </trkpt>
      <trkpt lat="40.947026" lon="-112.172355">
        <ele>1304.973667</ele>
        <time>2024-09-06T10:54:44.000Z</time>
      </trkpt>
      <trkpt lat="40.947839" lon="-112.172273">
        <ele>1305.263122</ele>
        <time>2024-09-06T10:54:53.000Z</time>
      </trkpt>
      <trkpt lat="40.94864" lon="-112.172132">
        <ele>1305.415814</ele>
        <time>2024-09-06T10:55:02.000Z</time>
      </trkpt>
      <trkpt lat="40.950863" lon="-112.171664">
        <ele>1305.354415</ele>
        <time>2024-09-06T10:55:27.000Z</time>
      </trkpt>
      <trkpt lat="40.952069" lon="-112.171656">
        <ele>1305.351872</ele>
        <time>2024-09-06T10:55:40.000Z</time>
      </trkpt>
      <trkpt lat="40.953625" lon="-112.171509">
        <ele>1304.974566</ele>
        <time>2024-09-06T10:55:57.000Z</time>
      </trkpt>
      <trkpt lat="40.95461" lon="-112.171525">
        <ele>1304.498571</ele>
        <time>2024-09-06T10:56:08.000Z</time>
      </trkpt>
      <trkpt lat="40.955788" lon="-112.171699">
        <ele>1303.278687</ele>
        <time>2024-09-06T10:56:21.000Z</time>
      </trkpt>
      <trkpt lat="40.956612" lon="-112.172111">
        <ele>1302.312553</ele>
        <time>2024-09-06T10:56:31.000Z</time>
      </trkpt>
      <trkpt lat="40.956942" lon="-112.172342">
        <ele>1301.889702</ele>
        <time>2024-09-06T10:56:35.000Z</time>
      </trkpt>
      <trkpt lat="40.957659" lon="-112.172925">
        <ele>1300.928474</ele>
        <time>2024-09-06T10:56:44.000Z</time>
      </trkpt>
      <trkpt lat="40.95823" lon="-112.173519">
        <ele>1299.616504</ele>
        <time>2024-09-06T10:56:52.000Z</time>
      </trkpt>
      <trkpt lat="40.958964" lon="-112.174252">
        <ele>1297.671398</ele>
        <time>2024-09-06T10:57:02.000Z</time>
      </trkpt>
      <trkpt lat="40.960084" lon="-112.174664">
        <ele>1294.774666</ele>
        <time>2024-09-06T10:57:15.000Z</time>
      </trkpt>
      <trkpt lat="40.960522" lon="-112.174861">
        <ele>1293.542052</ele>
        <time>2024-09-06T10:57:20.000Z</time>
      </trkpt>
      <trkpt lat="40.961504" lon="-112.175199">
        <ele>1291.23756</ele>
        <time>2024-09-06T10:57:31.000Z</time>
      </trkpt>
      <trkpt lat="40.962215" lon="-112.17557">
        <ele>1289.917526</ele>
        <time>2024-09-06T10:57:39.000Z</time>
      </trkpt>
      <trkpt lat="40.962575" lon="-112.175804">
        <ele>1289.217535</ele>
        <time>2024-09-06T10:57:43.000Z</time>
      </trkpt>
      <trkpt lat="40.963014" lon="-112.176074">
        <ele>1288.63862</ele>
        <time>2024-09-06T10:57:48.000Z</time>
      </trkpt>
      <trkpt lat="40.963249" lon="-112.176254">
        <ele>1288.404865</ele>
        <time>2024-09-06T10:57:51.000Z</time>
      </trkpt>
      <trkpt lat="40.963704" lon="-112.176578">
        <ele>1287.948165</ele>
        <time>2024-09-06T10:57:57.000Z</time>
      </trkpt>
      <trkpt lat="40.964053" lon="-112.176803">
        <ele>1287.599977</ele>
        <time>2024-09-06T10:58:01.000Z</time>
      </trkpt>
      <trkpt lat="40.964435" lon="-112.17695">
        <ele>1287.301778</ele>
        <time>2024-09-06T10:58:05.000Z</time>
      </trkpt>
      <trkpt lat="40.964828" lon="-112.177046">
        <ele>1287.197924</ele>
        <time>2024-09-06T10:58:09.000Z</time>
      </trkpt>
      <trkpt lat="40.965611" lon="-112.177162">
        <ele>1286.993577</ele>
        <time>2024-09-06T10:58:18.000Z</time>
      </trkpt>
      <trkpt lat="40.966362" lon="-112.177294">
        <ele>1286.918774</ele>
        <time>2024-09-06T10:58:26.000Z</time>
      </trkpt>
      <trkpt lat="40.96772" lon="-112.177724">
        <ele>1287.312362</ele>
        <time>2024-09-06T10:58:42.000Z</time>
      </trkpt>
      <trkpt lat="40.968206" lon="-112.177892">
        <ele>1287.468784</ele>
        <time>2024-09-06T10:58:48.000Z</time>
      </trkpt>
      <trkpt lat="40.969242" lon="-112.178543">
        <ele>1287.82933</ele>
        <time>2024-09-06T10:59:01.000Z</time>
      </trkpt>
      <trkpt lat="40.969677" lon="-112.178836">
        <ele>1288.026209</ele>
        <time>2024-09-06T10:59:06.000Z</time>
      </trkpt>
      <trkpt lat="40.970031" lon="-112.17914">
        <ele>1288.284705</ele>
        <time>2024-09-06T10:59:11.000Z</time>
      </trkpt>
      <trkpt lat="40.971093" lon="-112.180136">
        <ele>1289.111611</ele>
        <time>2024-09-06T10:59:25.000Z</time>
      </trkpt>
      <trkpt lat="40.971412" lon="-112.180477">
        <ele>1289.622964</ele>
        <time>2024-09-06T10:59:30.000Z</time>
      </trkpt>
      <trkpt lat="40.972056" lon="-112.181338">
        <ele>1290.755708</ele>
        <time>2024-09-06T10:59:40.000Z</time>
      </trkpt>
      <trkpt lat="40.972201" lon="-112.181506">
        <ele>1290.995442</ele>
        <time>2024-09-06T10:59:42.000Z</time>
      </trkpt>
      <trkpt lat="40.972783" lon="-112.1819">
        <ele>1291.779457</ele>
        <time>2024-09-06T10:59:49.000Z</time>
      </trkpt>
      <trkpt lat="40.973636" lon="-112.18264">
        <ele>1292.98249</ele>
        <time>2024-09-06T11:00:00.000Z</time>
      </trkpt>
      <trkpt lat="40.973978" lon="-112.182837">
        <ele>1293.384719</ele>
        <time>2024-09-06T11:00:04.000Z</time>
      </trkpt>
      <trkpt lat="40.974922" lon="-112.183233">
        <ele>1293.768549</ele>
        <time>2024-09-06T11:00:15.000Z</time>
      </trkpt>
      <trkpt lat="40.975884" lon="-112.183547">
        <ele>1294.057856</ele>
        <time>2024-09-06T11:00:26.000Z</time>
      </trkpt>
      <trkpt lat="40.976429" lon="-112.183796">
        <ele>1294.046772</ele>
        <time>2024-09-06T11:00:32.000Z</time>
      </trkpt>
      <trkpt lat="40.976804" lon="-112.183991">
        <ele>1294.03911</ele>
        <time>2024-09-06T11:00:36.000Z</time>
      </trkpt>
      <trkpt lat="40.977131" lon="-112.184242">
        <ele>1294.031802</ele>
        <time>2024-09-06T11:00:40.000Z</time>
      </trkpt>
      <trkpt lat="40.977395" lon="-112.18438">
        <ele>1294.027771</ele>
        <time>2024-09-06T11:00:43.000Z</time>
      </trkpt>
      <trkpt lat="40.978029" lon="-112.184809">
        <ele>1294.026973</ele>
        <time>2024-09-06T11:00:51.000Z</time>
      </trkpt>
      <trkpt lat="40.978466" lon="-112.185162">
        <ele>1294.026378</ele>
        <time>2024-09-06T11:00:57.000Z</time>
      </trkpt>
      <trkpt lat="40.978823" lon="-112.185488">
        <ele>1294.025906</ele>
        <time>2024-09-06T11:01:02.000Z</time>
      </trkpt>
      <trkpt lat="40.979591" lon="-112.186364">
        <ele>1293.894495</ele>
        <time>2024-09-06T11:01:13.000Z</time>
      </trkpt>
      <trkpt lat="40.980146" lon="-112.187223">
        <ele>1293.77592</ele>
        <time>2024-09-06T11:01:22.000Z</time>
      </trkpt>
      <trkpt lat="40.980451" lon="-112.18766">
        <ele>1293.547353</ele>
        <time>2024-09-06T11:01:27.000Z</time>
      </trkpt>
      <trkpt lat="40.981306" lon="-112.188351">
        <ele>1293.042304</ele>
        <time>2024-09-06T11:01:38.000Z</time>
      </trkpt>
      <trkpt lat="40.982647" lon="-112.189805">
        <ele>1292.008463</ele>
        <time>2024-09-06T11:01:57.000Z</time>
      </trkpt>
      <trkpt lat="40.983328" lon="-112.190223">
        <ele>1291.487846</ele>
        <time>2024-09-06T11:02:05.000Z</time>
      </trkpt>
      <trkpt lat="40.986416" lon="-112.191666">
        <ele>1288.686759</ele>
        <time>2024-09-06T11:02:41.000Z</time>
      </trkpt>
      <trkpt lat="40.988094" lon="-112.192541">
        <ele>1287.123213</ele>
        <time>2024-09-06T11:03:01.000Z</time>
      </trkpt>
      <trkpt lat="40.988759" lon="-112.192793">
        <ele>1286.911782</ele>
        <time>2024-09-06T11:03:09.000Z</time>
      </trkpt>
      <trkpt lat="40.98943" lon="-112.193112">
        <ele>1286.694351</ele>
        <time>2024-09-06T11:03:17.000Z</time>
      </trkpt>
      <trkpt lat="40.990793" lon="-112.194005">
        <ele>1286.727507</ele>
        <time>2024-09-06T11:03:34.000Z</time>
      </trkpt>
      <trkpt lat="40.991198" lon="-112.194354">
        <ele>1286.788597</ele>
        <time>2024-09-06T11:03:39.000Z</time>
      </trkpt>
      <trkpt lat="40.991624" lon="-112.194626">
        <ele>1286.959619</ele>
        <time>2024-09-06T11:03:44.000Z</time>
      </trkpt>
      <trkpt lat="40.992726" lon="-112.195372">
        <ele>1287.563725</ele>
        <time>2024-09-06T11:03:58.000Z</time>
      </trkpt>
      <trkpt lat="40.992982" lon="-112.195618">
        <ele>1287.774884</ele>
        <time>2024-09-06T11:04:02.000Z</time>
      </trkpt>
      <trkpt lat="40.99332" lon="-112.196052">
        <ele>1288.436599</ele>
        <time>2024-09-06T11:04:07.000Z</time>
      </trkpt>
      <trkpt lat="40.993684" lon="-112.196401">
        <ele>1289.073173</ele>
        <time>2024-09-06T11:04:12.000Z</time>
      </trkpt>
      <trkpt lat="40.995099" lon="-112.197372">
        <ele>1290.510148</ele>
        <time>2024-09-06T11:04:30.000Z</time>
      </trkpt>
      <trkpt lat="40.995129" lon="-112.197423">
        <ele>1290.530718</ele>
        <time>2024-09-06T11:04:31.000Z</time>
      </trkpt>
      <trkpt lat="40.995245" lon="-112.19748">
        <ele>1290.57177</ele>
        <time>2024-09-06T11:04:32.000Z</time>
      </trkpt>
      <trkpt lat="40.996053" lon="-112.198155">
        <ele>1290.767655</ele>
        <time>2024-09-06T11:04:43.000Z</time>
      </trkpt>
      <trkpt lat="40.996171" lon="-112.198204">
        <ele>1290.592104</ele>
        <time>2024-09-06T11:04:44.000Z</time>
      </trkpt>
      <trkpt lat="40.996906" lon="-112.198257">
        <ele>1289.685301</ele>
        <time>2024-09-06T11:04:52.000Z</time>
      </trkpt>
      <trkpt lat="40.998378" lon="-112.198017">
        <ele>1287.941155</ele>
        <time>2024-09-06T11:05:08.000Z</time>
      </trkpt>
      <trkpt lat="40.998756" lon="-112.197979">
        <ele>1287.547956</ele>
        <time>2024-09-06T11:05:12.000Z</time>
      </trkpt>
      <trkpt lat="40.999163" lon="-112.198055">
        <ele>1287.121394</ele>
        <time>2024-09-06T11:05:17.000Z</time>
      </trkpt>
      <trkpt lat="40.999959" lon="-112.198279">
        <ele>1286.334346</ele>
        <time>2024-09-06T11:05:26.000Z</time>
      </trkpt>
      <trkpt lat="41.000335" lon="-112.198301">
        <ele>1286.012611</ele>
        <time>2024-09-06T11:05:30.000Z</time>
      </trkpt>
      <trkpt lat="41.000658" lon="-112.198232">
        <ele>1285.7163</ele>
        <time>2024-09-06T11:05:34.000Z</time>
      </trkpt>
      <trkpt lat="41.002353" lon="-112.197569">
        <ele>1284.466973</ele>
        <time>2024-09-06T11:05:54.000Z</time>
      </trkpt>
      <trkpt lat="41.003125" lon="-112.197486">
        <ele>1284.067393</ele>
        <time>2024-09-06T11:06:03.000Z</time>
      </trkpt>
      <trkpt lat="41.003644" lon="-112.19747">
        <ele>1284.133252</ele>
        <time>2024-09-06T11:06:09.000Z</time>
      </trkpt>
      <trkpt lat="41.004203" lon="-112.197385">
        <ele>1284.203514</ele>
        <time>2024-09-06T11:06:15.000Z</time>
      </trkpt>
      <trkpt lat="41.00502" lon="-112.19719">
        <ele>1284.360573</ele>
        <time>2024-09-06T11:06:24.000Z</time>
      </trkpt>
      <trkpt lat="41.005378" lon="-112.19713">
        <ele>1284.493697</ele>
        <time>2024-09-06T11:06:28.000Z</time>
      </trkpt>
      <trkpt lat="41.006172" lon="-112.197211">
        <ele>1284.793036</ele>
        <time>2024-09-06T11:06:37.000Z</time>
      </trkpt>
      <trkpt lat="41.006611" lon="-112.197123">
        <ele>1284.960805</ele>
        <time>2024-09-06T11:06:42.000Z</time>
      </trkpt>
      <trkpt lat="41.008112" lon="-112.19644">
        <ele>1285.453134</ele>
        <time>2024-09-06T11:07:00.000Z</time>
      </trkpt>
      <trkpt lat="41.008583" lon="-112.196316">
        <ele>1285.663331</ele>
        <time>2024-09-06T11:07:05.000Z</time>
      </trkpt>
      <trkpt lat="41.009342" lon="-112.196169">
        <ele>1286.064164</ele>
        <time>2024-09-06T11:07:14.000Z</time>
      </trkpt>
      <trkpt lat="41.010022" lon="-112.196073">
        <ele>1286.420962</ele>
        <time>2024-09-06T11:07:22.000Z</time>
      </trkpt>
      <trkpt lat="41.012471" lon="-112.195625">
        <ele>1287.806953</ele>
        <time>2024-09-06T11:07:49.000Z</time>
      </trkpt>
      <trkpt lat="41.013024" lon="-112.195508">
        <ele>1287.998375</ele>
        <time>2024-09-06T11:07:55.000Z</time>
      </trkpt>
      <trkpt lat="41.014009" lon="-112.195172">
        <ele>1288.290162</ele>
        <time>2024-09-06T11:08:06.000Z</time>
      </trkpt>
      <trkpt lat="41.015419" lon="-112.195027">
        <ele>1288.546164</ele>
        <time>2024-09-06T11:08:22.000Z</time>
      </trkpt>
      <trkpt lat="41.015764" lon="-112.194956">
        <ele>1288.678886</ele>
        <time>2024-09-06T11:08:26.000Z</time>
      </trkpt>
      <trkpt lat="41.016206" lon="-112.19475">
        <ele>1288.862902</ele>
        <time>2024-09-06T11:08:31.000Z</time>
      </trkpt>
      <trkpt lat="41.016509" lon="-112.194596">
        <ele>1288.984077</ele>
        <time>2024-09-06T11:08:35.000Z</time>
      </trkpt>
      <trkpt lat="41.016802" lon="-112.194357">
        <ele>1289.122687</ele>
        <time>2024-09-06T11:08:39.000Z</time>
      </trkpt>
      <trkpt lat="41.017026" lon="-112.194133">
        <ele>1289.229455</ele>
        <time>2024-09-06T11:08:42.000Z</time>
      </trkpt>
      <trkpt lat="41.017805" lon="-112.193389">
        <ele>1290.056274</ele>
        <time>2024-09-06T11:08:53.000Z</time>
      </trkpt>
      <trkpt lat="41.018626" lon="-112.192703">
        <ele>1291.017959</ele>
        <time>2024-09-06T11:09:04.000Z</time>
      </trkpt>
      <trkpt lat="41.019295" lon="-112.192007">
        <ele>1292.626285</ele>
        <time>2024-09-06T11:09:13.000Z</time>
      </trkpt>
      <trkpt lat="41.020855" lon="-112.19077">
        <ele>1295.730199</ele>
        <time>2024-09-06T11:09:33.000Z</time>
      </trkpt>
      <trkpt lat="41.021077" lon="-112.190658">
        <ele>1296.124857</ele>
        <time>2024-09-06T11:09:36.000Z</time>
      </trkpt>
      <trkpt lat="41.021321" lon="-112.190656">
        <ele>1296.507676</ele>
        <time>2024-09-06T11:09:39.000Z</time>
      </trkpt>
      <trkpt lat="41.021464" lon="-112.190732">
        <ele>1296.751867</ele>
        <time>2024-09-06T11:09:41.000Z</time>
      </trkpt>
      <trkpt lat="41.021875" lon="-112.190806">
        <ele>1296.956517</ele>
        <time>2024-09-06T11:09:46.000Z</time>
      </trkpt>
      <trkpt lat="41.022339" lon="-112.191173">
        <ele>1296.733783</ele>
        <time>2024-09-06T11:09:52.000Z</time>
      </trkpt>
      <trkpt lat="41.022724" lon="-112.191624">
        <ele>1296.528677</ele>
        <time>2024-09-06T11:09:58.000Z</time>
      </trkpt>
      <trkpt lat="41.022947" lon="-112.192144">
        <ele>1296.34404</ele>
        <time>2024-09-06T11:10:03.000Z</time>
      </trkpt>
      <trkpt lat="41.023051" lon="-112.192926">
        <ele>1296.238035</ele>
        <time>2024-09-06T11:10:10.000Z</time>
      </trkpt>
      <trkpt lat="41.022956" lon="-112.193628">
        <ele>1296.163987</ele>
        <time>2024-09-06T11:10:16.000Z</time>
      </trkpt>
      <trkpt lat="41.023017" lon="-112.194016">
        <ele>1296.122367</ele>
        <time>2024-09-06T11:10:19.000Z</time>
      </trkpt>
      <trkpt lat="41.023187" lon="-112.194656">
        <ele>1296.069983</ele>
        <time>2024-09-06T11:10:25.000Z</time>
      </trkpt>
      <trkpt lat="41.023355" lon="-112.19513">
        <ele>1296.11361</ele>
        <time>2024-09-06T11:10:29.000Z</time>
      </trkpt>
      <trkpt lat="41.023911" lon="-112.195825">
        <ele>1296.196354</ele>
        <time>2024-09-06T11:10:37.000Z</time>
      </trkpt>
      <trkpt lat="41.024656" lon="-112.197023">
        <ele>1296.491153</ele>
        <time>2024-09-06T11:10:50.000Z</time>
      </trkpt>
      <trkpt lat="41.025218" lon="-112.197765">
        <ele>1296.796686</ele>
        <time>2024-09-06T11:10:59.000Z</time>
      </trkpt>
      <trkpt lat="41.025484" lon="-112.198208">
        <ele>1296.986636</ele>
        <time>2024-09-06T11:11:04.000Z</time>
      </trkpt>
      <trkpt lat="41.025644" lon="-112.198546">
        <ele>1297.380369</ele>
        <time>2024-09-06T11:11:07.000Z</time>
      </trkpt>
      <trkpt lat="41.02608" lon="-112.199668">
        <ele>1298.640137</ele>
        <time>2024-09-06T11:11:18.000Z</time>
      </trkpt>
      <trkpt lat="41.026269" lon="-112.200398">
        <ele>1299.400003</ele>
        <time>2024-09-06T11:11:24.000Z</time>
      </trkpt>
      <trkpt lat="41.026314" lon="-112.200916">
        <ele>1299.929911</ele>
        <time>2024-09-06T11:11:28.000Z</time>
      </trkpt>
      <trkpt lat="41.026417" lon="-112.201293">
        <ele>1300.323103</ele>
        <time>2024-09-06T11:11:31.000Z</time>
      </trkpt>
      <trkpt lat="41.026616" lon="-112.201712">
        <ele>1300.819304</ele>
        <time>2024-09-06T11:11:35.000Z</time>
      </trkpt>
      <trkpt lat="41.026855" lon="-112.202022">
        <ele>1301.273696</ele>
        <time>2024-09-06T11:11:39.000Z</time>
      </trkpt>
      <trkpt lat="41.027257" lon="-112.202337">
        <ele>1301.857349</ele>
        <time>2024-09-06T11:11:44.000Z</time>
      </trkpt>
      <trkpt lat="41.027869" lon="-112.202746">
        <ele>1302.565902</ele>
        <time>2024-09-06T11:11:52.000Z</time>
      </trkpt>
      <trkpt lat="41.028081" lon="-112.202946">
        <ele>1302.838816</ele>
        <time>2024-09-06T11:11:55.000Z</time>
      </trkpt>
      <trkpt lat="41.028389" lon="-112.203321">
        <ele>1303.279318</ele>
        <time>2024-09-06T11:12:00.000Z</time>
      </trkpt>
      <trkpt lat="41.028815" lon="-112.203894">
        <ele>1304.306809</ele>
        <time>2024-09-06T11:12:07.000Z</time>
      </trkpt>
      <trkpt lat="41.028988" lon="-112.204162">
        <ele>1304.892981</ele>
        <time>2024-09-06T11:12:10.000Z</time>
      </trkpt>
      <trkpt lat="41.029347" lon="-112.204432">
        <ele>1305.836494</ele>
        <time>2024-09-06T11:12:15.000Z</time>
      </trkpt>
      <trkpt lat="41.029727" lon="-112.204629">
        <ele>1306.73325</ele>
        <time>2024-09-06T11:12:20.000Z</time>
      </trkpt>
      <trkpt lat="41.030077" lon="-112.204756">
        <ele>1307.587074</ele>
        <time>2024-09-06T11:12:24.000Z</time>
      </trkpt>
      <trkpt lat="41.030554" lon="-112.204771">
        <ele>1309.445422</ele>
        <time>2024-09-06T11:12:29.000Z</time>
      </trkpt>
      <trkpt lat="41.03167" lon="-112.204655">
        <ele>1314.137171</ele>
        <time>2024-09-06T11:12:41.000Z</time>
      </trkpt>
      <trkpt lat="41.0324" lon="-112.204601">
        <ele>1317.879317</ele>
        <time>2024-09-06T11:12:49.000Z</time>
      </trkpt>
      <trkpt lat="41.032736" lon="-112.204681">
        <ele>1319.812718</ele>
        <time>2024-09-06T11:12:53.000Z</time>
      </trkpt>
      <trkpt lat="41.032961" lon="-112.204815">
        <ele>1321.191408</ele>
        <time>2024-09-06T11:12:56.000Z</time>
      </trkpt>
      <trkpt lat="41.033184" lon="-112.205045">
        <ele>1322.759658</ele>
        <time>2024-09-06T11:12:59.000Z</time>
      </trkpt>
      <trkpt lat="41.033327" lon="-112.205109">
        <ele>1323.573917</ele>
        <time>2024-09-06T11:13:01.000Z</time>
      </trkpt>
      <trkpt lat="41.033919" lon="-112.205194">
        <ele>1326.931684</ele>
        <time>2024-09-06T11:13:08.000Z</time>
      </trkpt>
      <trkpt lat="41.034289" lon="-112.205342">
        <ele>1328.968998</ele>
        <time>2024-09-06T11:13:12.000Z</time>
      </trkpt>
      <trkpt lat="41.035497" lon="-112.205347">
        <ele>1335.545065</ele>
        <time>2024-09-06T11:13:25.000Z</time>
      </trkpt>
      <trkpt lat="41.035778" lon="-112.205445">
        <ele>1336.824902</ele>
        <time>2024-09-06T11:13:28.000Z</time>
      </trkpt>
      <trkpt lat="41.036013" lon="-112.205588">
        <ele>1338.0528</ele>
        <time>2024-09-06T11:13:31.000Z</time>
      </trkpt>
      <trkpt lat="41.036941" lon="-112.206253">
        <ele>1342.909385</ele>
        <time>2024-09-06T11:13:43.000Z</time>
      </trkpt>
      <trkpt lat="41.037161" lon="-112.20651">
        <ele>1344.031313</ele>
        <time>2024-09-06T11:13:46.000Z</time>
      </trkpt>
      <trkpt lat="41.037376" lon="-112.206785">
        <ele>1345.020093</ele>
        <time>2024-09-06T11:13:49.000Z</time>
      </trkpt>
      <trkpt lat="41.037493" lon="-112.207024">
        <ele>1345.766899</ele>
        <time>2024-09-06T11:13:51.000Z</time>
      </trkpt>
      <trkpt lat="41.038377" lon="-112.208197">
        <ele>1349.60808</ele>
        <time>2024-09-06T11:14:05.000Z</time>
      </trkpt>
      <trkpt lat="41.038565" lon="-112.208414">
        <ele>1349.83576</ele>
        <time>2024-09-06T11:14:08.000Z</time>
      </trkpt>
      <trkpt lat="41.039034" lon="-112.208809">
        <ele>1350.340075</ele>
        <time>2024-09-06T11:14:14.000Z</time>
      </trkpt>
      <trkpt lat="41.039312" lon="-112.209207">
        <ele>1350.711072</ele>
        <time>2024-09-06T11:14:19.000Z</time>
      </trkpt>
      <trkpt lat="41.039478" lon="-112.209429">
        <ele>1350.929617</ele>
        <time>2024-09-06T11:14:22.000Z</time>
      </trkpt>
      <trkpt lat="41.039661" lon="-112.209497">
        <ele>1351.101642</ele>
        <time>2024-09-06T11:14:24.000Z</time>
      </trkpt>
      <trkpt lat="41.039979" lon="-112.209725">
        <ele>1350.845828</ele>
        <time>2024-09-06T11:14:28.000Z</time>
      </trkpt>
      <trkpt lat="41.040331" lon="-112.21015">
        <ele>1350.512905</ele>
        <time>2024-09-06T11:14:33.000Z</time>
      </trkpt>
      <trkpt lat="41.040522" lon="-112.210774">
        <ele>1350.150399</ele>
        <time>2024-09-06T11:14:39.000Z</time>
      </trkpt>
      <trkpt lat="41.040613" lon="-112.211188">
        <ele>1349.923051</ele>
        <time>2024-09-06T11:14:43.000Z</time>
      </trkpt>
      <trkpt lat="41.040697" lon="-112.214341">
        <ele>1351.506672</ele>
        <time>2024-09-06T11:15:09.000Z</time>
      </trkpt>
      <trkpt lat="41.040546" lon="-112.215226">
        <ele>1352.311399</ele>
        <time>2024-09-06T11:15:17.000Z</time>
      </trkpt>
      <trkpt lat="41.040427" lon="-112.217674">
        <ele>1354.446138</ele>
        <time>2024-09-06T11:15:38.000Z</time>
      </trkpt>
      <trkpt lat="41.04025" lon="-112.218681">
        <ele>1355.070489</ele>
        <time>2024-09-06T11:15:47.000Z</time>
      </trkpt>
      <trkpt lat="41.040122" lon="-112.219731">
        <ele>1354.741968</ele>
        <time>2024-09-06T11:15:56.000Z</time>
      </trkpt>
      <trkpt lat="41.04029" lon="-112.221922">
        <ele>1352.46565</ele>
        <time>2024-09-06T11:16:14.000Z</time>
      </trkpt>
      <trkpt lat="41.04061" lon="-112.223123">
        <ele>1350.202894</ele>
        <time>2024-09-06T11:16:25.000Z</time>
      </trkpt>
      <trkpt lat="41.040846" lon="-112.224417">
        <ele>1346.978726</ele>
        <time>2024-09-06T11:16:36.000Z</time>
      </trkpt>
      <trkpt lat="41.041194" lon="-112.225969">
        <ele>1343.013653</ele>
        <time>2024-09-06T11:16:50.000Z</time>
      </trkpt>
      <trkpt lat="41.041568" lon="-112.22721">
        <ele>1339.864943</ele>
        <time>2024-09-06T11:17:01.000Z</time>
      </trkpt>
      <trkpt lat="41.041783" lon="-112.228239">
        <ele>1336.705759</ele>
        <time>2024-09-06T11:17:10.000Z</time>
      </trkpt>
      <trkpt lat="41.0419" lon="-112.228488">
        <ele>1335.682769</ele>
        <time>2024-09-06T11:17:12.000Z</time>
      </trkpt>
      <trkpt lat="41.042" lon="-112.228942">
        <ele>1334.050772</ele>
        <time>2024-09-06T11:17:16.000Z</time>
      </trkpt>
      <trkpt lat="41.042313" lon="-112.229662">
        <ele>1331.200263</ele>
        <time>2024-09-06T11:17:23.000Z</time>
      </trkpt>
      <trkpt lat="41.04269" lon="-112.23032">
        <ele>1327.828554</ele>
        <time>2024-09-06T11:17:30.000Z</time>
      </trkpt>
      <trkpt lat="41.042959" lon="-112.230668">
        <ele>1325.583319</ele>
        <time>2024-09-06T11:17:34.000Z</time>
      </trkpt>
      <trkpt lat="41.043315" lon="-112.231236">
        <ele>1322.384839</ele>
        <time>2024-09-06T11:17:40.000Z</time>
      </trkpt>
      <trkpt lat="41.043704" lon="-112.23178">
        <ele>1319.310762</ele>
        <time>2024-09-06T11:17:46.000Z</time>
      </trkpt>
      <trkpt lat="41.044231" lon="-112.232356">
        <ele>1316.07556</ele>
        <time>2024-09-06T11:17:54.000Z</time>
      </trkpt>
      <trkpt lat="41.044586" lon="-112.232691">
        <ele>1314.010336</ele>
        <time>2024-09-06T11:17:59.000Z</time>
      </trkpt>
      <trkpt lat="41.046038" lon="-112.23359">
        <ele>1308.008751</ele>
        <time>2024-09-06T11:18:17.000Z</time>
      </trkpt>
      <trkpt lat="41.046837" lon="-112.234028">
        <ele>1305.480062</ele>
        <time>2024-09-06T11:18:27.000Z</time>
      </trkpt>
      <trkpt lat="41.048038" lon="-112.23457">
        <ele>1303.154745</ele>
        <time>2024-09-06T11:18:41.000Z</time>
      </trkpt>
      <trkpt lat="41.048713" lon="-112.234805">
        <ele>1302.422019</ele>
        <time>2024-09-06T11:18:49.000Z</time>
      </trkpt>
      <trkpt lat="41.05026" lon="-112.235603">
        <ele>1301.92996</ele>
        <time>2024-09-06T11:19:07.000Z</time>
      </trkpt>
      <trkpt lat="41.050437" lon="-112.235908">
        <ele>1301.745524</ele>
        <time>2024-09-06T11:19:10.000Z</time>
      </trkpt>
      <trkpt lat="41.05059" lon="-112.236084">
        <ele>1301.628155</ele>
        <time>2024-09-06T11:19:12.000Z</time>
      </trkpt>
      <trkpt lat="41.050591" lon="-112.236383">
        <ele>1301.483847</ele>
        <time>2024-09-06T11:19:15.000Z</time>
      </trkpt>
      <trkpt lat="41.05086" lon="-112.236398">
        <ele>1301.31129</ele>
        <time>2024-09-06T11:19:18.000Z</time>
      </trkpt>
      <trkpt lat="41.052483" lon="-112.236226">
        <ele>1299.227987</ele>
        <time>2024-09-06T11:19:36.000Z</time>
      </trkpt>
      <trkpt lat="41.053183" lon="-112.236235">
        <ele>1298.025938</ele>
        <time>2024-09-06T11:19:44.000Z</time>
      </trkpt>
      <trkpt lat="41.054085" lon="-112.236315">
        <ele>1296.92122</ele>
        <time>2024-09-06T11:19:54.000Z</time>
      </trkpt>
      <trkpt lat="41.055525" lon="-112.236786">
        <ele>1294.788199</ele>
        <time>2024-09-06T11:20:10.000Z</time>
      </trkpt>
      <trkpt lat="41.055905" lon="-112.236866">
        <ele>1294.070388</ele>
        <time>2024-09-06T11:20:14.000Z</time>
      </trkpt>
      <trkpt lat="41.056489" lon="-112.23693">
        <ele>1292.929202</ele>
        <time>2024-09-06T11:20:21.000Z</time>
      </trkpt>
      <trkpt lat="41.057353" lon="-112.237087">
        <ele>1290.317536</ele>
        <time>2024-09-06T11:20:31.000Z</time>
      </trkpt>
      <trkpt lat="41.058365" lon="-112.237344">
        <ele>1286.671697</ele>
        <time>2024-09-06T11:20:42.000Z</time>
      </trkpt>
      <trkpt lat="41.058676" lon="-112.237454">
        <ele>1285.658819</ele>
        <time>2024-09-06T11:20:46.000Z</time>
      </trkpt>
      <trkpt lat="41.059028" lon="-112.237575">
        <ele>1284.841732</ele>
        <time>2024-09-06T11:20:50.000Z</time>
      </trkpt>
      <trkpt lat="41.059408" lon="-112.237537">
        <ele>1284.025041</ele>
        <time>2024-09-06T11:20:54.000Z</time>
      </trkpt>
      <trkpt lat="41.05966" lon="-112.237446">
        <ele>1283.439549</ele>
        <time>2024-09-06T11:20:57.000Z</time>
      </trkpt>
      <trkpt lat="41.059887" lon="-112.237269">
        <ele>1282.891019</ele>
        <time>2024-09-06T11:21:00.000Z</time>
      </trkpt>
      <trkpt lat="41.059942" lon="-112.237227">
        <ele>1282.734465</ele>
        <time>2024-09-06T11:21:01.000Z</time>
      </trkpt>
      <trkpt lat="41.061482" lon="-112.235609">
        <ele>1281.163067</ele>
        <time>2024-09-06T11:21:23.000Z</time>
      </trkpt>
      <trkpt lat="41.066612" lon="-112.230373">
        <ele>1280.999998</ele>
        <time>2024-09-06T11:22:35.000Z</time>
      </trkpt>
      <trkpt lat="41.06682" lon="-112.230164">
        <ele>1281.000006</ele>
        <time>2024-09-06T11:22:38.000Z</time>
      </trkpt>
      <trkpt lat="41.072136" lon="-112.224616">
        <ele>1281.000008</ele>
        <time>2024-09-06T11:23:53.000Z</time>
      </trkpt>
      <trkpt lat="41.074488" lon="-112.222256">
        <ele>1280.999991</ele>
        <time>2024-09-06T11:24:26.000Z</time>
      </trkpt>
      <trkpt lat="41.075039" lon="-112.221671">
        <ele>1280.999992</ele>
        <time>2024-09-06T11:24:34.000Z</time>
      </trkpt>
      <trkpt lat="41.076289" lon="-112.220037">
        <ele>1280.999994</ele>
        <time>2024-09-06T11:24:54.000Z</time>
      </trkpt>
      <trkpt lat="41.078624" lon="-112.216722">
        <ele>1281.000009</ele>
        <time>2024-09-06T11:25:32.000Z</time>
      </trkpt>
      <trkpt lat="41.079335" lon="-112.215758">
        <ele>1280.999996</ele>
        <time>2024-09-06T11:25:43.000Z</time>
      </trkpt>
      <trkpt lat="41.079788" lon="-112.215087">
        <ele>1281.000009</ele>
        <time>2024-09-06T11:25:51.000Z</time>
      </trkpt>
      <trkpt lat="41.08002" lon="-112.214678">
        <ele>1281.000003</ele>
        <time>2024-09-06T11:25:55.000Z</time>
      </trkpt>
      <trkpt lat="41.08047" lon="-112.213545">
        <ele>1281.000009</ele>
        <time>2024-09-06T11:26:06.000Z</time>
      </trkpt>
      <trkpt lat="41.081842" lon="-112.209522">
        <ele>1280.999991</ele>
        <time>2024-09-06T11:26:43.000Z</time>
      </trkpt>
      <trkpt lat="41.082207" lon="-112.208535">
        <ele>1280.999996</ele>
        <time>2024-09-06T11:26:52.000Z</time>
      </trkpt>
      <trkpt lat="41.082552" lon="-112.207508">
        <ele>1280.999994</ele>
        <time>2024-09-06T11:27:01.000Z</time>
      </trkpt>
      <trkpt lat="41.083785" lon="-112.204016">
        <ele>1281.000001</ele>
        <time>2024-09-06T11:27:33.000Z</time>
      </trkpt>
      <trkpt lat="41.084185" lon="-112.202796">
        <ele>1281.000007</ele>
        <time>2024-09-06T11:27:44.000Z</time>
      </trkpt>
      <trkpt lat="41.086683" lon="-112.195755">
        <ele>1281</ele>
        <time>2024-09-06T11:28:49.000Z</time>
      </trkpt>
      <trkpt lat="41.087167" lon="-112.194468">
        <ele>1280.999999</ele>
        <time>2024-09-06T11:29:01.000Z</time>
      </trkpt>
      <trkpt lat="41.087973" lon="-112.192123">
        <ele>1281.000004</ele>
        <time>2024-09-06T11:29:23.000Z</time>
      </trkpt>
      <trkpt lat="41.088557" lon="-112.190032">
        <ele>1280.999994</ele>
        <time>2024-09-06T11:29:42.000Z</time>
      </trkpt>
      <trkpt lat="41.088976" lon="-112.188016">
        <ele>1281.000009</ele>
        <time>2024-09-06T11:30:00.000Z</time>
      </trkpt>
      <trkpt lat="41.089151" lon="-112.186792">
        <ele>1280.999991</ele>
        <time>2024-09-06T11:30:10.000Z</time>
      </trkpt>
      <trkpt lat="41.089269" lon="-112.185179">
        <ele>1280.999998</ele>
        <time>2024-09-06T11:30:24.000Z</time>
      </trkpt>
      <trkpt lat="41.089315" lon="-112.1807">
        <ele>1281.027325</ele>
        <time>2024-09-06T11:31:02.000Z</time>
      </trkpt>
      <trkpt lat="41.089259" lon="-112.119127">
        <ele>1284.705748</ele>
        <time>2024-09-06T11:39:38.000Z</time>
      </trkpt>
      <trkpt lat="41.089253" lon="-112.117167">
        <ele>1285.449915</ele>
        <time>2024-09-06T11:39:54.000Z</time>
      </trkpt>
      <trkpt lat="41.089261" lon="-112.114281">
        <ele>1287.076533</ele>
        <time>2024-09-06T11:40:18.000Z</time>
      </trkpt>
      <trkpt lat="41.089259" lon="-112.113783">
        <ele>1287.366312</ele>
        <time>2024-09-06T11:40:22.000Z</time>
      </trkpt>
      <trkpt lat="41.089245" lon="-112.113735">
        <ele>1287.395689</ele>
        <time>2024-09-06T11:40:22.000Z</time>
      </trkpt>
      <trkpt lat="41.089242" lon="-112.112713">
        <ele>1287.740266</ele>
        <time>2024-09-06T11:40:31.000Z</time>
      </trkpt>
      <trkpt lat="41.090545" lon="-112.112713">
        <ele>1288.090512</ele>
        <time>2024-09-06T11:40:45.000Z</time>
      </trkpt>
      <trkpt lat="41.091223" lon="-112.112715">
        <ele>1288.097296</ele>
        <time>2024-09-06T11:40:53.000Z</time>
      </trkpt>
      <trkpt lat="41.091629" lon="-112.112706">
        <ele>1288.098973</ele>
        <time>2024-09-06T11:40:58.000Z</time>
      </trkpt>
      <trkpt lat="41.092917" lon="-112.112698">
        <ele>1288.106881</ele>
        <time>2024-09-06T11:41:12.000Z</time>
      </trkpt>
      <trkpt lat="41.094654" lon="-112.112701">
        <ele>1288.227492</ele>
        <time>2024-09-06T11:41:31.000Z</time>
      </trkpt>
      <trkpt lat="41.094668" lon="-112.112057">
        <ele>1288.33315</ele>
        <time>2024-09-06T11:41:36.000Z</time>
      </trkpt>
      <trkpt lat="41.094662" lon="-112.111702">
        <ele>1288.391526</ele>
        <time>2024-09-06T11:41:39.000Z</time>
      </trkpt>
      <trkpt lat="41.094683" lon="-112.1115">
        <ele>1288.424776</ele>
        <time>2024-09-06T11:41:41.000Z</time>
      </trkpt>
      <trkpt lat="41.094735" lon="-112.111297">
        <ele>1288.457693</ele>
        <time>2024-09-06T11:41:43.000Z</time>
      </trkpt>
      <trkpt lat="41.094983" lon="-112.110779">
        <ele>1288.572518</ele>
        <time>2024-09-06T11:41:48.000Z</time>
      </trkpt>
      <trkpt lat="41.095577" lon="-112.109612">
        <ele>1288.848882</ele>
        <time>2024-09-06T11:42:00.000Z</time>
      </trkpt>
      <trkpt lat="41.095659" lon="-112.109333">
        <ele>1288.909381</ele>
        <time>2024-09-06T11:42:03.000Z</time>
      </trkpt>
      <trkpt lat="41.095759" lon="-112.108779">
        <ele>1289.026335</ele>
        <time>2024-09-06T11:42:08.000Z</time>
      </trkpt>
      <trkpt lat="41.09575" lon="-112.108442">
        <ele>1289.098151</ele>
        <time>2024-09-06T11:42:11.000Z</time>
      </trkpt>
      <trkpt lat="41.095715" lon="-112.108151">
        <ele>1289.163606</ele>
        <time>2024-09-06T11:42:13.000Z</time>
      </trkpt>
      <trkpt lat="41.095632" lon="-112.107785">
        <ele>1289.244086</ele>
        <time>2024-09-06T11:42:16.000Z</time>
      </trkpt>
      <trkpt lat="41.095326" lon="-112.106667">
        <ele>1289.501227</ele>
        <time>2024-09-06T11:42:26.000Z</time>
      </trkpt>
      <trkpt lat="41.095044" lon="-112.105564">
        <ele>1289.757907</ele>
        <time>2024-09-06T11:42:36.000Z</time>
      </trkpt>
      <trkpt lat="41.0948" lon="-112.104661">
        <ele>1289.970488</ele>
        <time>2024-09-06T11:42:44.000Z</time>
      </trkpt>
      <trkpt lat="41.094755" lon="-112.104401">
        <ele>1290.030615</ele>
        <time>2024-09-06T11:42:46.000Z</time>
      </trkpt>
      <trkpt lat="41.094758" lon="-112.104171">
        <ele>1290.076516</ele>
        <time>2024-09-06T11:42:48.000Z</time>
      </trkpt>
      <trkpt lat="41.09475" lon="-112.103693">
        <ele>1290.180772</ele>
        <time>2024-09-06T11:42:52.000Z</time>
      </trkpt>
      <trkpt lat="41.094652" lon="-112.103497">
        <ele>1290.228374</ele>
        <time>2024-09-06T11:42:54.000Z</time>
      </trkpt>
      <trkpt lat="41.094658" lon="-112.103202">
        <ele>1290.291639</ele>
        <time>2024-09-06T11:42:56.000Z</time>
      </trkpt>
      <trkpt lat="41.094727" lon="-112.103131">
        <ele>1290.317935</ele>
        <time>2024-09-06T11:42:57.000Z</time>
      </trkpt>
      <trkpt lat="41.094698" lon="-112.101387">
        <ele>1290.679683</ele>
        <time>2024-09-06T11:43:12.000Z</time>
      </trkpt>
      <trkpt lat="41.094692" lon="-112.100655">
        <ele>1290.821018</ele>
        <time>2024-09-06T11:43:18.000Z</time>
      </trkpt>
      <trkpt lat="41.094699" lon="-112.100449">
        <ele>1290.863555</ele>
        <time>2024-09-06T11:43:20.000Z</time>
      </trkpt>
      <trkpt lat="41.094756" lon="-112.100092">
        <ele>1290.933014</ele>
        <time>2024-09-06T11:43:23.000Z</time>
      </trkpt>
      <trkpt lat="41.094758" lon="-112.099514">
        <ele>1291.021453</ele>
        <time>2024-09-06T11:43:28.000Z</time>
      </trkpt>
      <trkpt lat="41.094723" lon="-112.099176">
        <ele>1291.04989</ele>
        <time>2024-09-06T11:43:31.000Z</time>
      </trkpt>
      <trkpt lat="41.094725" lon="-112.098753">
        <ele>1291.083651</ele>
        <time>2024-09-06T11:43:35.000Z</time>
      </trkpt>
      <trkpt lat="41.094714" lon="-112.098275">
        <ele>1291.12218</ele>
        <time>2024-09-06T11:43:39.000Z</time>
      </trkpt>
      <trkpt lat="41.094706" lon="-112.096956">
        <ele>1291.193354</ele>
        <time>2024-09-06T11:43:50.000Z</time>
      </trkpt>
      <trkpt lat="41.094704" lon="-112.096671">
        <ele>1291.190986</ele>
        <time>2024-09-06T11:43:52.000Z</time>
      </trkpt>
      <trkpt lat="41.094599" lon="-112.09667">
        <ele>1291.189841</ele>
        <time>2024-09-06T11:43:53.000Z</time>
      </trkpt>
      <trkpt lat="41.094364" lon="-112.096665">
        <ele>1291.187192</ele>
        <time>2024-09-06T11:43:56.000Z</time>
      </trkpt>
      <trkpt lat="41.094283" lon="-112.096619">
        <ele>1291.186059</ele>
        <time>2024-09-06T11:43:57.000Z</time>
      </trkpt>
      <trkpt lat="41.093625" lon="-112.096264">
        <ele>1291.178132</ele>
        <time>2024-09-06T11:44:05.000Z</time>
      </trkpt>
      <trkpt lat="41.092434" lon="-112.095614">
        <ele>1291.12378</ele>
        <time>2024-09-06T11:44:19.000Z</time>
      </trkpt>
      <trkpt lat="41.092179" lon="-112.095486">
        <ele>1291.111148</ele>
        <time>2024-09-06T11:44:22.000Z</time>
      </trkpt>
      <trkpt lat="41.091998" lon="-112.095429">
        <ele>1291.102701</ele>
        <time>2024-09-06T11:44:24.000Z</time>
      </trkpt>
      <trkpt lat="41.091538" lon="-112.095432">
        <ele>1291.081398</ele>
        <time>2024-09-06T11:44:29.000Z</time>
      </trkpt>
      <trkpt lat="41.09012" lon="-112.095423">
        <ele>1291.017193</ele>
        <time>2024-09-06T11:44:45.000Z</time>
      </trkpt>
      <trkpt lat="41.089229" lon="-112.095432">
        <ele>1290.963644</ele>
        <time>2024-09-06T11:44:55.000Z</time>
      </trkpt>
      <trkpt lat="41.088617" lon="-112.095412">
        <ele>1290.925087</ele>
        <time>2024-09-06T11:45:02.000Z</time>
      </trkpt>
      <trkpt lat="41.088593" lon="-112.095417">
        <ele>1290.923028</ele>
        <time>2024-09-06T11:45:02.000Z</time>
      </trkpt>
      <trkpt lat="41.088086" lon="-112.09539">
        <ele>1290.867696</ele>
        <time>2024-09-06T11:45:08.000Z</time>
      </trkpt>
      <trkpt lat="41.087323" lon="-112.095407">
        <ele>1290.676865</ele>
        <time>2024-09-06T11:45:16.000Z</time>
      </trkpt>
      <trkpt lat="41.08724" lon="-112.095362">
        <ele>1290.653749</ele>
        <time>2024-09-06T11:45:17.000Z</time>
      </trkpt>
      <trkpt lat="41.087117" lon="-112.095286">
        <ele>1290.622676</ele>
        <time>2024-09-06T11:45:19.000Z</time>
      </trkpt>
      <trkpt lat="41.086935" lon="-112.09506">
        <ele>1290.558695</ele>
        <time>2024-09-06T11:45:22.000Z</time>
      </trkpt>
      <trkpt lat="41.086693" lon="-112.094908">
        <ele>1290.491808</ele>
        <time>2024-09-06T11:45:25.000Z</time>
      </trkpt>
      <trkpt lat="41.0862" lon="-112.094916">
        <ele>1290.367276</ele>
        <time>2024-09-06T11:45:30.000Z</time>
      </trkpt>
      <trkpt lat="41.086016" lon="-112.094902">
        <ele>1290.32292</ele>
        <time>2024-09-06T11:45:32.000Z</time>
      </trkpt>
      <trkpt lat="41.08531" lon="-112.094912">
        <ele>1290.149368</ele>
        <time>2024-09-06T11:45:40.000Z</time>
      </trkpt>
      <trkpt lat="41.08409" lon="-112.094928">
        <ele>1289.87254</ele>
        <time>2024-09-06T11:45:54.000Z</time>
      </trkpt>
      <trkpt lat="41.083192" lon="-112.094791">
        <ele>1289.684139</ele>
        <time>2024-09-06T11:46:04.000Z</time>
      </trkpt>
      <trkpt lat="41.082419" lon="-112.094713">
        <ele>1289.491353</ele>
        <time>2024-09-06T11:46:13.000Z</time>
      </trkpt>
      <trkpt lat="41.08198" lon="-112.094699">
        <ele>1289.370752</ele>
        <time>2024-09-06T11:46:18.000Z</time>
      </trkpt>
      <trkpt lat="41.081833" lon="-112.094694">
        <ele>1289.328317</ele>
        <time>2024-09-06T11:46:20.000Z</time>
      </trkpt>
      <trkpt lat="41.081714" lon="-112.094648">
        <ele>1289.293692</ele>
        <time>2024-09-06T11:46:21.000Z</time>
      </trkpt>
      <trkpt lat="41.0815" lon="-112.094507">
        <ele>1289.231083</ele>
        <time>2024-09-06T11:46:24.000Z</time>
      </trkpt>
      <trkpt lat="41.081225" lon="-112.094385">
        <ele>1289.154559</ele>
        <time>2024-09-06T11:46:27.000Z</time>
      </trkpt>
      <trkpt lat="41.080478" lon="-112.094237">
        <ele>1289.084186</ele>
        <time>2024-09-06T11:46:35.000Z</time>
      </trkpt>
      <trkpt lat="41.079731" lon="-112.094125">
        <ele>1289.026323</ele>
        <time>2024-09-06T11:46:43.000Z</time>
      </trkpt>
      <trkpt lat="41.078979" lon="-112.094084">
        <ele>1288.999239</ele>
        <time>2024-09-06T11:46:51.000Z</time>
      </trkpt>
      <trkpt lat="41.077749" lon="-112.094055">
        <ele>1288.997047</ele>
        <time>2024-09-06T11:47:05.000Z</time>
      </trkpt>
      <trkpt lat="41.076915" lon="-112.094029">
        <ele>1288.895539</ele>
        <time>2024-09-06T11:47:14.000Z</time>
      </trkpt>
      <trkpt lat="41.076103" lon="-112.094052">
        <ele>1288.773968</ele>
        <time>2024-09-06T11:47:23.000Z</time>
      </trkpt>
      <trkpt lat="41.07527" lon="-112.094071">
        <ele>1288.647188</ele>
        <time>2024-09-06T11:47:32.000Z</time>
      </trkpt>
      <trkpt lat="41.07477" lon="-112.09406">
        <ele>1288.568128</ele>
        <time>2024-09-06T11:47:38.000Z</time>
      </trkpt>
      <trkpt lat="41.074759" lon="-112.093549">
        <ele>1288.507649</ele>
        <time>2024-09-06T11:47:42.000Z</time>
      </trkpt>
      <trkpt lat="41.074746" lon="-112.091508">
        <ele>1288.577853</ele>
        <time>2024-09-06T11:47:59.000Z</time>
      </trkpt>
      <trkpt lat="41.074739" lon="-112.090403">
        <ele>1288.684602</ele>
        <time>2024-09-06T11:48:08.000Z</time>
      </trkpt>
      <trkpt lat="41.074743" lon="-112.089644">
        <ele>1288.78981</ele>
        <time>2024-09-06T11:48:14.000Z</time>
      </trkpt>
      <trkpt lat="41.074739" lon="-112.089373">
        <ele>1288.825394</ele>
        <time>2024-09-06T11:48:16.000Z</time>
      </trkpt>
      <trkpt lat="41.074736" lon="-112.089206">
        <ele>1288.850865</ele>
        <time>2024-09-06T11:48:17.000Z</time>
      </trkpt>
      <trkpt lat="41.074735" lon="-112.089139">
        <ele>1288.860148</ele>
        <time>2024-09-06T11:48:18.000Z</time>
      </trkpt>
      <trkpt lat="41.074742" lon="-112.089047">
        <ele>1288.870667</ele>
        <time>2024-09-06T11:48:19.000Z</time>
      </trkpt>
      <trkpt lat="41.074729" lon="-112.088873">
        <ele>1288.897114</ele>
        <time>2024-09-06T11:48:20.000Z</time>
      </trkpt>
      <trkpt lat="41.074728" lon="-112.08873">
        <ele>1288.914684</ele>
        <time>2024-09-06T11:48:21.000Z</time>
      </trkpt>
      <trkpt lat="41.074734" lon="-112.088542">
        <ele>1288.940586</ele>
        <time>2024-09-06T11:48:23.000Z</time>
      </trkpt>
      <trkpt lat="41.074728" lon="-112.08808">
        <ele>1288.982274</ele>
        <time>2024-09-06T11:48:27.000Z</time>
      </trkpt>
      <trkpt lat="41.074725" lon="-112.087903">
        <ele>1288.98648</ele>
        <time>2024-09-06T11:48:28.000Z</time>
      </trkpt>
      <trkpt lat="41.074726" lon="-112.087524">
        <ele>1288.995352</ele>
        <time>2024-09-06T11:48:31.000Z</time>
      </trkpt>
      <trkpt lat="41.074724" lon="-112.086141">
        <ele>1289.028049</ele>
        <time>2024-09-06T11:48:43.000Z</time>
      </trkpt>
      <trkpt lat="41.074711" lon="-112.084871">
        <ele>1289.017988</ele>
        <time>2024-09-06T11:48:54.000Z</time>
      </trkpt>
      <trkpt lat="41.074722" lon="-112.083892">
        <ele>1289.002753</ele>
        <time>2024-09-06T11:49:02.000Z</time>
      </trkpt>
      <trkpt lat="41.073215" lon="-112.083894">
        <ele>1288.648067</ele>
        <time>2024-09-06T11:49:19.000Z</time>
      </trkpt>
      <trkpt lat="41.072125" lon="-112.083903">
        <ele>1288.314081</ele>
        <time>2024-09-06T11:49:31.000Z</time>
      </trkpt>
      <trkpt lat="41.072102" lon="-112.083899">
        <ele>1288.306823</ele>
        <time>2024-09-06T11:49:31.000Z</time>
      </trkpt>
      <trkpt lat="41.071946" lon="-112.083905">
        <ele>1288.260989</ele>
        <time>2024-09-06T11:49:33.000Z</time>
      </trkpt>
      <trkpt lat="41.071815" lon="-112.083895">
        <ele>1288.217783</ele>
        <time>2024-09-06T11:49:34.000Z</time>
      </trkpt>
      <trkpt lat="41.0678" lon="-112.083929">
        <ele>1286.891038</ele>
        <time>2024-09-06T11:50:19.000Z</time>
      </trkpt>
      <trkpt lat="41.063179" lon="-112.08392">
        <ele>1285.424948</ele>
        <time>2024-09-06T11:51:10.000Z</time>
      </trkpt>
      <trkpt lat="41.063054" lon="-112.083944">
        <ele>1285.411143</ele>
        <time>2024-09-06T11:51:11.000Z</time>
      </trkpt>
      <trkpt lat="41.061609" lon="-112.07906">
        <ele>1285.034138</ele>
        <time>2024-09-06T11:51:55.000Z</time>
      </trkpt>
      <trkpt lat="41.061067" lon="-112.077293">
        <ele>1285.004195</ele>
        <time>2024-09-06T11:52:11.000Z</time>
      </trkpt>
      <trkpt lat="41.060416" lon="-112.075328">
        <ele>1285.073812</ele>
        <time>2024-09-06T11:52:29.000Z</time>
      </trkpt>
      <trkpt lat="41.060266" lon="-112.07465">
        <ele>1285.156608</ele>
        <time>2024-09-06T11:52:35.000Z</time>
      </trkpt>
      <trkpt lat="41.060245" lon="-112.074219">
        <ele>1285.204755</ele>
        <time>2024-09-06T11:52:39.000Z</time>
      </trkpt>
      <trkpt lat="41.060264" lon="-112.073528">
        <ele>1285.28391</ele>
        <time>2024-09-06T11:52:45.000Z</time>
      </trkpt>
      <trkpt lat="41.060221" lon="-112.071855">
        <ele>1285.603407</ele>
        <time>2024-09-06T11:52:59.000Z</time>
      </trkpt>
      <trkpt lat="41.060202" lon="-112.064701">
        <ele>1287.002618</ele>
        <time>2024-09-06T11:53:59.000Z</time>
      </trkpt>
      <trkpt lat="41.060218" lon="-112.060708">
        <ele>1287.796694</ele>
        <time>2024-09-06T11:54:32.000Z</time>
      </trkpt>
      <trkpt lat="41.060217" lon="-112.060668">
        <ele>1287.805209</ele>
        <time>2024-09-06T11:54:32.000Z</time>
      </trkpt>
      <trkpt lat="41.06025" lon="-112.055143">
        <ele>1288.57066203</ele>
        <time>2024-09-06T11:55:18.000Z</time>
      </trkpt>
      <trkpt lat="41.060243" lon="-112.054736">
        <ele>1288.62706214</ele>
        <time>2024-09-06T11:55:21.000Z</time>
      </trkpt>
    </trkseg>
  </trk>
</gpx>

<!--
Performance optimized by W3 Total Cache. Learn more: https://www.boldgrid.com/w3-total-cache/?utm_source=w3tc&utm_medium=footer_comment&utm_campaign=free_plugin

Page Caching using Disk: Enhanced{w3tc_pagecache_reject_reason} 

Served from: www.aquabike.world @ 2026-05-10 21:35:37 by W3 Total Cache
-->